<?xml version="1.0" encoding="UTF-8" standalone="yes"?>
<gpx version="1.1" creator="MagicMaps Scout" xmlns:xsi="http://www.w3.org/2001/XMLSchema-instance" xmlns="http://www.topografix.com/GPX/1/1" xsi:schemaLocation="http://www.topografix.com/GPX/1/1 http://www.topografix.com/GPX/1/1/gpx.xsd"><trk><name>oktoberradtour2011</name><trkseg><trkpt lat="50.48962" lon="6.88097"><ele>314</ele><time>2011-10-03T09:40:50Z</time></trkpt><trkpt lat="50.48963" lon="6.88057"><ele>357</ele><time>2011-10-03T09:41:19Z</time></trkpt><trkpt lat="50.48961" lon="6.88021"><ele>357</ele><time>2011-10-03T09:41:28Z</time></trkpt><trkpt lat="50.48977" lon="6.87994"><ele>359</ele><time>2011-10-03T09:41:38Z</time></trkpt><trkpt lat="50.48968" lon="6.87957"><ele>363</ele><time>2011-10-03T09:41:47Z</time></trkpt><trkpt lat="50.48952" lon="6.87929"><ele>367</ele><time>2011-10-03T09:41:54Z</time></trkpt><trkpt lat="50.48932" lon="6.87902"><ele>372</ele><time>2011-10-03T09:42:01Z</time></trkpt><trkpt lat="50.48896" lon="6.87855"><ele>380</ele><time>2011-10-03T09:42:11Z</time></trkpt><trkpt lat="50.48881" lon="6.87838"><ele>384</ele><time>2011-10-03T09:42:16Z</time></trkpt><trkpt lat="50.48866" lon="6.87838"><ele>387</ele><time>2011-10-03T09:42:21Z</time></trkpt><trkpt lat="50.48852" lon="6.87845"><ele>392</ele><time>2011-10-03T09:42:31Z</time></trkpt><trkpt lat="50.48848" lon="6.87844"><ele>395</ele><time>2011-10-03T09:42:44Z</time></trkpt><trkpt lat="50.48844" lon="6.87849"><ele>396</ele><time>2011-10-03T09:42:47Z</time></trkpt><trkpt lat="50.48837" lon="6.87860"><ele>398</ele><time>2011-10-03T09:42:50Z</time></trkpt><trkpt lat="50.48835" lon="6.87865"><ele>400</ele><time>2011-10-03T09:42:51Z</time></trkpt><trkpt lat="50.48822" lon="6.87882"><ele>404</ele><time>2011-10-03T09:42:55Z</time></trkpt><trkpt lat="50.48814" lon="6.87890"><ele>407</ele><time>2011-10-03T09:42:57Z</time></trkpt><trkpt lat="50.48801" lon="6.87903"><ele>411</ele><time>2011-10-03T09:43:00Z</time></trkpt><trkpt lat="50.48795" lon="6.87915"><ele>412</ele><time>2011-10-03T09:43:02Z</time></trkpt><trkpt lat="50.48792" lon="6.87927"><ele>412</ele><time>2011-10-03T09:43:04Z</time></trkpt><trkpt lat="50.48789" lon="6.87940"><ele>412</ele><time>2011-10-03T09:43:06Z</time></trkpt><trkpt lat="50.48779" lon="6.87976"><ele>411</ele><time>2011-10-03T09:43:12Z</time></trkpt><trkpt lat="50.48772" lon="6.87983"><ele>411</ele><time>2011-10-03T09:43:14Z</time></trkpt><trkpt lat="50.48762" lon="6.87982"><ele>412</ele><time>2011-10-03T09:43:17Z</time></trkpt><trkpt lat="50.48758" lon="6.87974"><ele>413</ele><time>2011-10-03T09:43:19Z</time></trkpt><trkpt lat="50.48757" lon="6.87968"><ele>413</ele><time>2011-10-03T09:43:20Z</time></trkpt><trkpt lat="50.48757" lon="6.87962"><ele>414</ele><time>2011-10-03T09:43:21Z</time></trkpt><trkpt lat="50.48758" lon="6.87956"><ele>414</ele><time>2011-10-03T09:43:22Z</time></trkpt><trkpt lat="50.48760" lon="6.87933"><ele>415</ele><time>2011-10-03T09:43:25Z</time></trkpt><trkpt lat="50.48762" lon="6.87918"><ele>415</ele><time>2011-10-03T09:43:27Z</time></trkpt><trkpt lat="50.48762" lon="6.87904"><ele>415</ele><time>2011-10-03T09:43:29Z</time></trkpt><trkpt lat="50.48761" lon="6.87890"><ele>416</ele><time>2011-10-03T09:43:31Z</time></trkpt><trkpt lat="50.48757" lon="6.87877"><ele>416</ele><time>2011-10-03T09:43:33Z</time></trkpt><trkpt lat="50.48752" lon="6.87868"><ele>416</ele><time>2011-10-03T09:43:35Z</time></trkpt><trkpt lat="50.48746" lon="6.87861"><ele>417</ele><time>2011-10-03T09:43:37Z</time></trkpt><trkpt lat="50.48743" lon="6.87858"><ele>417</ele><time>2011-10-03T09:43:38Z</time></trkpt><trkpt lat="50.48735" lon="6.87854"><ele>417</ele><time>2011-10-03T09:43:40Z</time></trkpt><trkpt lat="50.48717" lon="6.87846"><ele>420</ele><time>2011-10-03T09:43:44Z</time></trkpt><trkpt lat="50.48711" lon="6.87845"><ele>421</ele><time>2011-10-03T09:43:45Z</time></trkpt><trkpt lat="50.48705" lon="6.87845"><ele>422</ele><time>2011-10-03T09:43:46Z</time></trkpt><trkpt lat="50.48624" lon="6.87847"><ele>422</ele><time>2011-10-03T09:43:57Z</time></trkpt><trkpt lat="50.48618" lon="6.87848"><ele>422</ele><time>2011-10-03T09:43:58Z</time></trkpt><trkpt lat="50.48589" lon="6.87853"><ele>421</ele><time>2011-10-03T09:44:03Z</time></trkpt><trkpt lat="50.48584" lon="6.87857"><ele>420</ele><time>2011-10-03T09:44:04Z</time></trkpt><trkpt lat="50.48580" lon="6.87863"><ele>419</ele><time>2011-10-03T09:44:05Z</time></trkpt><trkpt lat="50.48569" lon="6.87883"><ele>418</ele><time>2011-10-03T09:44:08Z</time></trkpt><trkpt lat="50.48561" lon="6.87902"><ele>417</ele><time>2011-10-03T09:44:11Z</time></trkpt><trkpt lat="50.48559" lon="6.87908"><ele>417</ele><time>2011-10-03T09:44:12Z</time></trkpt><trkpt lat="50.48547" lon="6.87927"><ele>413</ele><time>2011-10-03T09:44:16Z</time></trkpt><trkpt lat="50.48539" lon="6.87933"><ele>411</ele><time>2011-10-03T09:44:18Z</time></trkpt><trkpt lat="50.48534" lon="6.87935"><ele>411</ele><time>2011-10-03T09:44:19Z</time></trkpt><trkpt lat="50.48530" lon="6.87934"><ele>410</ele><time>2011-10-03T09:44:20Z</time></trkpt><trkpt lat="50.48517" lon="6.87928"><ele>409</ele><time>2011-10-03T09:44:23Z</time></trkpt><trkpt lat="50.48512" lon="6.87924"><ele>409</ele><time>2011-10-03T09:44:24Z</time></trkpt><trkpt lat="50.48508" lon="6.87917"><ele>409</ele><time>2011-10-03T09:44:25Z</time></trkpt><trkpt lat="50.48473" lon="6.87853"><ele>409</ele><time>2011-10-03T09:44:33Z</time></trkpt><trkpt lat="50.48466" lon="6.87847"><ele>409</ele><time>2011-10-03T09:44:34Z</time></trkpt><trkpt lat="50.48451" lon="6.87836"><ele>408</ele><time>2011-10-03T09:44:36Z</time></trkpt><trkpt lat="50.48441" lon="6.87834"><ele>408</ele><time>2011-10-03T09:44:37Z</time></trkpt><trkpt lat="50.48423" lon="6.87834"><ele>408</ele><time>2011-10-03T09:44:39Z</time></trkpt><trkpt lat="50.48414" lon="6.87838"><ele>407</ele><time>2011-10-03T09:44:40Z</time></trkpt><trkpt lat="50.48398" lon="6.87849"><ele>407</ele><time>2011-10-03T09:44:42Z</time></trkpt><trkpt lat="50.48391" lon="6.87858"><ele>407</ele><time>2011-10-03T09:44:43Z</time></trkpt><trkpt lat="50.48374" lon="6.87888"><ele>406</ele><time>2011-10-03T09:44:46Z</time></trkpt><trkpt lat="50.48370" lon="6.87899"><ele>406</ele><time>2011-10-03T09:44:47Z</time></trkpt><trkpt lat="50.48346" lon="6.87977"><ele>404</ele><time>2011-10-03T09:44:56Z</time></trkpt><trkpt lat="50.48338" lon="6.87998"><ele>403</ele><time>2011-10-03T09:44:59Z</time></trkpt><trkpt lat="50.48335" lon="6.88005"><ele>403</ele><time>2011-10-03T09:45:00Z</time></trkpt><trkpt lat="50.48329" lon="6.88018"><ele>402</ele><time>2011-10-03T09:45:02Z</time></trkpt><trkpt lat="50.48315" lon="6.88044"><ele>401</ele><time>2011-10-03T09:45:07Z</time></trkpt><trkpt lat="50.48309" lon="6.88054"><ele>400</ele><time>2011-10-03T09:45:09Z</time></trkpt><trkpt lat="50.48300" lon="6.88066"><ele>400</ele><time>2011-10-03T09:45:12Z</time></trkpt><trkpt lat="50.48296" lon="6.88069"><ele>400</ele><time>2011-10-03T09:45:13Z</time></trkpt><trkpt lat="50.48286" lon="6.88080"><ele>399</ele><time>2011-10-03T09:45:16Z</time></trkpt><trkpt lat="50.48279" lon="6.88087"><ele>399</ele><time>2011-10-03T09:45:18Z</time></trkpt><trkpt lat="50.48265" lon="6.88098"><ele>399</ele><time>2011-10-03T09:45:22Z</time></trkpt><trkpt lat="50.48261" lon="6.88101"><ele>399</ele><time>2011-10-03T09:45:23Z</time></trkpt><trkpt lat="50.48238" lon="6.88112"><ele>398</ele><time>2011-10-03T09:45:29Z</time></trkpt><trkpt lat="50.48235" lon="6.88113"><ele>398</ele><time>2011-10-03T09:45:30Z</time></trkpt><trkpt lat="50.48205" lon="6.88119"><ele>398</ele><time>2011-10-03T09:45:38Z</time></trkpt><trkpt lat="50.48198" lon="6.88119"><ele>398</ele><time>2011-10-03T09:45:40Z</time></trkpt><trkpt lat="50.48180" lon="6.88119"><ele>397</ele><time>2011-10-03T09:45:45Z</time></trkpt><trkpt lat="50.48173" lon="6.88118"><ele>397</ele><time>2011-10-03T09:45:47Z</time></trkpt><trkpt lat="50.48159" lon="6.88114"><ele>397</ele><time>2011-10-03T09:45:51Z</time></trkpt><trkpt lat="50.48151" lon="6.88111"><ele>397</ele><time>2011-10-03T09:45:53Z</time></trkpt><trkpt lat="50.48147" lon="6.88110"><ele>397</ele><time>2011-10-03T09:45:54Z</time></trkpt><trkpt lat="50.48143" lon="6.88109"><ele>397</ele><time>2011-10-03T09:45:55Z</time></trkpt><trkpt lat="50.48131" lon="6.88107"><ele>397</ele><time>2011-10-03T09:45:58Z</time></trkpt><trkpt lat="50.48120" lon="6.88104"><ele>398</ele><time>2011-10-03T09:46:01Z</time></trkpt><trkpt lat="50.48117" lon="6.88102"><ele>398</ele><time>2011-10-03T09:46:02Z</time></trkpt><trkpt lat="50.48047" lon="6.88064"><ele>398</ele><time>2011-10-03T09:46:20Z</time></trkpt><trkpt lat="50.48042" lon="6.88063"><ele>398</ele><time>2011-10-03T09:46:21Z</time></trkpt><trkpt lat="50.48017" lon="6.88050"><ele>396</ele><time>2011-10-03T09:46:26Z</time></trkpt><trkpt lat="50.48012" lon="6.88044"><ele>395</ele><time>2011-10-03T09:46:27Z</time></trkpt><trkpt lat="50.48008" lon="6.88040"><ele>394</ele><time>2011-10-03T09:46:28Z</time></trkpt><trkpt lat="50.47991" lon="6.88021"><ele>392</ele><time>2011-10-03T09:46:32Z</time></trkpt><trkpt lat="50.47987" lon="6.88015"><ele>391</ele><time>2011-10-03T09:46:33Z</time></trkpt><trkpt lat="50.47970" lon="6.87996"><ele>389</ele><time>2011-10-03T09:46:37Z</time></trkpt><trkpt lat="50.47963" lon="6.87991"><ele>389</ele><time>2011-10-03T09:46:39Z</time></trkpt><trkpt lat="50.47886" lon="6.87932"><ele>388</ele><time>2011-10-03T09:47:08Z</time></trkpt><trkpt lat="50.47869" lon="6.87918"><ele>386</ele><time>2011-10-03T09:47:14Z</time></trkpt><trkpt lat="50.47863" lon="6.87914"><ele>386</ele><time>2011-10-03T09:47:16Z</time></trkpt><trkpt lat="50.47848" lon="6.87904"><ele>385</ele><time>2011-10-03T09:47:20Z</time></trkpt><trkpt lat="50.47844" lon="6.87900"><ele>385</ele><time>2011-10-03T09:47:21Z</time></trkpt><trkpt lat="50.47827" lon="6.87888"><ele>386</ele><time>2011-10-03T09:47:25Z</time></trkpt><trkpt lat="50.47819" lon="6.87884"><ele>386</ele><time>2011-10-03T09:47:27Z</time></trkpt><trkpt lat="50.47815" lon="6.87883"><ele>386</ele><time>2011-10-03T09:47:28Z</time></trkpt><trkpt lat="50.47807" lon="6.87883"><ele>386</ele><time>2011-10-03T09:47:30Z</time></trkpt><trkpt lat="50.47791" lon="6.87884"><ele>387</ele><time>2011-10-03T09:47:35Z</time></trkpt><trkpt lat="50.47778" lon="6.87885"><ele>388</ele><time>2011-10-03T09:47:39Z</time></trkpt><trkpt lat="50.47775" lon="6.87885"><ele>388</ele><time>2011-10-03T09:47:40Z</time></trkpt><trkpt lat="50.47771" lon="6.87886"><ele>388</ele><time>2011-10-03T09:47:41Z</time></trkpt><trkpt lat="50.47703" lon="6.87902"><ele>398</ele><time>2011-10-03T09:47:57Z</time></trkpt><trkpt lat="50.47693" lon="6.87903"><ele>399</ele><time>2011-10-03T09:47:59Z</time></trkpt><trkpt lat="50.47679" lon="6.87903"><ele>399</ele><time>2011-10-03T09:48:02Z</time></trkpt><trkpt lat="50.47665" lon="6.87901"><ele>399</ele><time>2011-10-03T09:48:05Z</time></trkpt><trkpt lat="50.47655" lon="6.87897"><ele>399</ele><time>2011-10-03T09:48:07Z</time></trkpt><trkpt lat="50.47640" lon="6.87891"><ele>398</ele><time>2011-10-03T09:48:10Z</time></trkpt><trkpt lat="50.47636" lon="6.87889"><ele>398</ele><time>2011-10-03T09:48:11Z</time></trkpt><trkpt lat="50.47631" lon="6.87886"><ele>398</ele><time>2011-10-03T09:48:12Z</time></trkpt><trkpt lat="50.47627" lon="6.87883"><ele>398</ele><time>2011-10-03T09:48:13Z</time></trkpt><trkpt lat="50.47618" lon="6.87876"><ele>398</ele><time>2011-10-03T09:48:15Z</time></trkpt><trkpt lat="50.47613" lon="6.87872"><ele>398</ele><time>2011-10-03T09:48:16Z</time></trkpt><trkpt lat="50.47581" lon="6.87842"><ele>397</ele><time>2011-10-03T09:48:23Z</time></trkpt><trkpt lat="50.47576" lon="6.87837"><ele>397</ele><time>2011-10-03T09:48:24Z</time></trkpt><trkpt lat="50.47501" lon="6.87761"><ele>394</ele><time>2011-10-03T09:48:36Z</time></trkpt><trkpt lat="50.47442" lon="6.87700"><ele>388</ele><time>2011-10-03T09:48:46Z</time></trkpt><trkpt lat="50.47436" lon="6.87695"><ele>388</ele><time>2011-10-03T09:48:47Z</time></trkpt><trkpt lat="50.47425" lon="6.87687"><ele>387</ele><time>2011-10-03T09:48:49Z</time></trkpt><trkpt lat="50.47419" lon="6.87685"><ele>386</ele><time>2011-10-03T09:48:50Z</time></trkpt><trkpt lat="50.47403" lon="6.87682"><ele>385</ele><time>2011-10-03T09:48:53Z</time></trkpt><trkpt lat="50.47395" lon="6.87685"><ele>385</ele><time>2011-10-03T09:48:55Z</time></trkpt><trkpt lat="50.47387" lon="6.87691"><ele>384</ele><time>2011-10-03T09:48:57Z</time></trkpt><trkpt lat="50.47333" lon="6.87735"><ele>383</ele><time>2011-10-03T09:49:13Z</time></trkpt><trkpt lat="50.47327" lon="6.87738"><ele>383</ele><time>2011-10-03T09:49:15Z</time></trkpt><trkpt lat="50.47318" lon="6.87744"><ele>383</ele><time>2011-10-03T09:49:18Z</time></trkpt><trkpt lat="50.47315" lon="6.87746"><ele>383</ele><time>2011-10-03T09:49:19Z</time></trkpt><trkpt lat="50.47291" lon="6.87766"><ele>384</ele><time>2011-10-03T09:49:28Z</time></trkpt><trkpt lat="50.47287" lon="6.87770"><ele>384</ele><time>2011-10-03T09:49:30Z</time></trkpt><trkpt lat="50.47282" lon="6.87774"><ele>384</ele><time>2011-10-03T09:49:32Z</time></trkpt><trkpt lat="50.47266" lon="6.87785"><ele>384</ele><time>2011-10-03T09:49:38Z</time></trkpt><trkpt lat="50.47263" lon="6.87786"><ele>384</ele><time>2011-10-03T09:49:39Z</time></trkpt><trkpt lat="50.47258" lon="6.87790"><ele>384</ele><time>2011-10-03T09:49:41Z</time></trkpt><trkpt lat="50.47245" lon="6.87802"><ele>385</ele><time>2011-10-03T09:49:46Z</time></trkpt><trkpt lat="50.47228" lon="6.87820"><ele>386</ele><time>2011-10-03T09:49:54Z</time></trkpt><trkpt lat="50.47226" lon="6.87822"><ele>386</ele><time>2011-10-03T09:49:55Z</time></trkpt><trkpt lat="50.47221" lon="6.87827"><ele>387</ele><time>2011-10-03T09:49:57Z</time></trkpt><trkpt lat="50.47216" lon="6.87833"><ele>387</ele><time>2011-10-03T09:49:59Z</time></trkpt><trkpt lat="50.47210" lon="6.87842"><ele>387</ele><time>2011-10-03T09:50:02Z</time></trkpt><trkpt lat="50.47203" lon="6.87853"><ele>388</ele><time>2011-10-03T09:50:06Z</time></trkpt><trkpt lat="50.47196" lon="6.87861"><ele>389</ele><time>2011-10-03T09:50:10Z</time></trkpt><trkpt lat="50.47192" lon="6.87865"><ele>389</ele><time>2011-10-03T09:50:12Z</time></trkpt><trkpt lat="50.47157" lon="6.87897"><ele>393</ele><time>2011-10-03T09:50:28Z</time></trkpt><trkpt lat="50.47149" lon="6.87903"><ele>394</ele><time>2011-10-03T09:50:31Z</time></trkpt><trkpt lat="50.47139" lon="6.87910"><ele>395</ele><time>2011-10-03T09:50:35Z</time></trkpt><trkpt lat="50.47131" lon="6.87914"><ele>395</ele><time>2011-10-03T09:50:38Z</time></trkpt><trkpt lat="50.47120" lon="6.87922"><ele>396</ele><time>2011-10-03T09:50:42Z</time></trkpt><trkpt lat="50.47107" lon="6.87931"><ele>397</ele><time>2011-10-03T09:50:46Z</time></trkpt><trkpt lat="50.47079" lon="6.87956"><ele>398</ele><time>2011-10-03T09:50:54Z</time></trkpt><trkpt lat="50.47071" lon="6.87964"><ele>398</ele><time>2011-10-03T09:50:56Z</time></trkpt><trkpt lat="50.47033" lon="6.88003"><ele>398</ele><time>2011-10-03T09:51:04Z</time></trkpt><trkpt lat="50.47029" lon="6.88010"><ele>398</ele><time>2011-10-03T09:51:05Z</time></trkpt><trkpt lat="50.47016" lon="6.88034"><ele>398</ele><time>2011-10-03T09:51:08Z</time></trkpt><trkpt lat="50.46979" lon="6.88102"><ele>398</ele><time>2011-10-03T09:51:17Z</time></trkpt><trkpt lat="50.46974" lon="6.88108"><ele>398</ele><time>2011-10-03T09:51:18Z</time></trkpt><trkpt lat="50.46965" lon="6.88118"><ele>398</ele><time>2011-10-03T09:51:20Z</time></trkpt><trkpt lat="50.46956" lon="6.88124"><ele>397</ele><time>2011-10-03T09:51:22Z</time></trkpt><trkpt lat="50.46938" lon="6.88134"><ele>397</ele><time>2011-10-03T09:51:26Z</time></trkpt><trkpt lat="50.46934" lon="6.88136"><ele>397</ele><time>2011-10-03T09:51:27Z</time></trkpt><trkpt lat="50.46858" lon="6.88177"><ele>397</ele><time>2011-10-03T09:51:51Z</time></trkpt><trkpt lat="50.46816" lon="6.88201"><ele>397</ele><time>2011-10-03T09:52:08Z</time></trkpt><trkpt lat="50.46814" lon="6.88202"><ele>397</ele><time>2011-10-03T09:52:09Z</time></trkpt><trkpt lat="50.46808" lon="6.88206"><ele>397</ele><time>2011-10-03T09:52:12Z</time></trkpt><trkpt lat="50.46804" lon="6.88207"><ele>397</ele><time>2011-10-03T09:52:14Z</time></trkpt><trkpt lat="50.46799" lon="6.88210"><ele>397</ele><time>2011-10-03T09:52:16Z</time></trkpt><trkpt lat="50.46789" lon="6.88219"><ele>397</ele><time>2011-10-03T09:52:21Z</time></trkpt><trkpt lat="50.46782" lon="6.88227"><ele>397</ele><time>2011-10-03T09:52:24Z</time></trkpt><trkpt lat="50.46780" lon="6.88230"><ele>397</ele><time>2011-10-03T09:52:25Z</time></trkpt><trkpt lat="50.46776" lon="6.88235"><ele>398</ele><time>2011-10-03T09:52:27Z</time></trkpt><trkpt lat="50.46769" lon="6.88245"><ele>398</ele><time>2011-10-03T09:52:31Z</time></trkpt><trkpt lat="50.46767" lon="6.88248"><ele>398</ele><time>2011-10-03T09:52:32Z</time></trkpt><trkpt lat="50.46758" lon="6.88266"><ele>398</ele><time>2011-10-03T09:52:39Z</time></trkpt><trkpt lat="50.46755" lon="6.88275"><ele>398</ele><time>2011-10-03T09:52:42Z</time></trkpt><trkpt lat="50.46750" lon="6.88287"><ele>398</ele><time>2011-10-03T09:52:46Z</time></trkpt><trkpt lat="50.46747" lon="6.88296"><ele>399</ele><time>2011-10-03T09:52:49Z</time></trkpt><trkpt lat="50.46742" lon="6.88312"><ele>399</ele><time>2011-10-03T09:52:54Z</time></trkpt><trkpt lat="50.46741" lon="6.88316"><ele>399</ele><time>2011-10-03T09:52:55Z</time></trkpt><trkpt lat="50.46741" lon="6.88319"><ele>399</ele><time>2011-10-03T09:52:56Z</time></trkpt><trkpt lat="50.46740" lon="6.88323"><ele>399</ele><time>2011-10-03T09:52:57Z</time></trkpt><trkpt lat="50.46730" lon="6.88375"><ele>400</ele><time>2011-10-03T09:53:09Z</time></trkpt><trkpt lat="50.46729" lon="6.88384"><ele>400</ele><time>2011-10-03T09:53:11Z</time></trkpt><trkpt lat="50.46720" lon="6.88457"><ele>401</ele><time>2011-10-03T09:53:26Z</time></trkpt><trkpt lat="50.46718" lon="6.88467"><ele>401</ele><time>2011-10-03T09:53:28Z</time></trkpt><trkpt lat="50.46714" lon="6.88485"><ele>402</ele><time>2011-10-03T09:53:32Z</time></trkpt><trkpt lat="50.46712" lon="6.88489"><ele>402</ele><time>2011-10-03T09:53:33Z</time></trkpt><trkpt lat="50.46706" lon="6.88505"><ele>402</ele><time>2011-10-03T09:53:37Z</time></trkpt><trkpt lat="50.46703" lon="6.88512"><ele>402</ele><time>2011-10-03T09:53:39Z</time></trkpt><trkpt lat="50.46687" lon="6.88542"><ele>403</ele><time>2011-10-03T09:53:48Z</time></trkpt><trkpt lat="50.46681" lon="6.88553"><ele>403</ele><time>2011-10-03T09:53:52Z</time></trkpt><trkpt lat="50.46679" lon="6.88555"><ele>403</ele><time>2011-10-03T09:53:53Z</time></trkpt><trkpt lat="50.46672" lon="6.88566"><ele>403</ele><time>2011-10-03T09:53:57Z</time></trkpt><trkpt lat="50.46666" lon="6.88572"><ele>403</ele><time>2011-10-03T09:54:00Z</time></trkpt><trkpt lat="50.46629" lon="6.88616"><ele>402</ele><time>2011-10-03T09:54:20Z</time></trkpt><trkpt lat="50.46625" lon="6.88622"><ele>402</ele><time>2011-10-03T09:54:22Z</time></trkpt><trkpt lat="50.46617" lon="6.88635"><ele>402</ele><time>2011-10-03T09:54:26Z</time></trkpt><trkpt lat="50.46615" lon="6.88639"><ele>402</ele><time>2011-10-03T09:54:27Z</time></trkpt><trkpt lat="50.46597" lon="6.88666"><ele>403</ele><time>2011-10-03T09:54:35Z</time></trkpt><trkpt lat="50.46595" lon="6.88671"><ele>403</ele><time>2011-10-03T09:54:37Z</time></trkpt><trkpt lat="50.46571" lon="6.88716"><ele>404</ele><time>2011-10-03T09:54:50Z</time></trkpt><trkpt lat="50.46568" lon="6.88721"><ele>404</ele><time>2011-10-03T09:54:52Z</time></trkpt><trkpt lat="50.46563" lon="6.88729"><ele>404</ele><time>2011-10-03T09:54:55Z</time></trkpt><trkpt lat="50.46550" lon="6.88751"><ele>405</ele><time>2011-10-03T09:55:03Z</time></trkpt><trkpt lat="50.46546" lon="6.88756"><ele>405</ele><time>2011-10-03T09:55:05Z</time></trkpt><trkpt lat="50.46539" lon="6.88764"><ele>405</ele><time>2011-10-03T09:55:08Z</time></trkpt><trkpt lat="50.46527" lon="6.88775"><ele>405</ele><time>2011-10-03T09:55:13Z</time></trkpt><trkpt lat="50.46524" lon="6.88777"><ele>405</ele><time>2011-10-03T09:55:14Z</time></trkpt><trkpt lat="50.46513" lon="6.88784"><ele>405</ele><time>2011-10-03T09:55:18Z</time></trkpt><trkpt lat="50.46502" lon="6.88788"><ele>406</ele><time>2011-10-03T09:55:23Z</time></trkpt><trkpt lat="50.46472" lon="6.88802"><ele>407</ele><time>2011-10-03T09:55:35Z</time></trkpt><trkpt lat="50.46463" lon="6.88807"><ele>407</ele><time>2011-10-03T09:55:39Z</time></trkpt><trkpt lat="50.46451" lon="6.88813"><ele>407</ele><time>2011-10-03T09:55:44Z</time></trkpt><trkpt lat="50.46447" lon="6.88813"><ele>408</ele><time>2011-10-03T09:55:46Z</time></trkpt><trkpt lat="50.46442" lon="6.88815"><ele>408</ele><time>2011-10-03T09:55:48Z</time></trkpt><trkpt lat="50.46419" lon="6.88826"><ele>409</ele><time>2011-10-03T09:55:58Z</time></trkpt><trkpt lat="50.46413" lon="6.88830"><ele>409</ele><time>2011-10-03T09:56:01Z</time></trkpt><trkpt lat="50.46395" lon="6.88842"><ele>410</ele><time>2011-10-03T09:56:09Z</time></trkpt><trkpt lat="50.46391" lon="6.88846"><ele>410</ele><time>2011-10-03T09:56:11Z</time></trkpt><trkpt lat="50.46387" lon="6.88850"><ele>410</ele><time>2011-10-03T09:56:13Z</time></trkpt><trkpt lat="50.46382" lon="6.88856"><ele>410</ele><time>2011-10-03T09:56:16Z</time></trkpt><trkpt lat="50.46377" lon="6.88862"><ele>411</ele><time>2011-10-03T09:56:19Z</time></trkpt><trkpt lat="50.46369" lon="6.88873"><ele>411</ele><time>2011-10-03T09:56:24Z</time></trkpt><trkpt lat="50.46348" lon="6.88895"><ele>412</ele><time>2011-10-03T09:56:35Z</time></trkpt><trkpt lat="50.46346" lon="6.88897"><ele>412</ele><time>2011-10-03T09:56:36Z</time></trkpt><trkpt lat="50.46337" lon="6.88905"><ele>413</ele><time>2011-10-03T09:56:40Z</time></trkpt><trkpt lat="50.46335" lon="6.88908"><ele>413</ele><time>2011-10-03T09:56:41Z</time></trkpt><trkpt lat="50.46308" lon="6.88944"><ele>413</ele><time>2011-10-03T09:56:58Z</time></trkpt><trkpt lat="50.46302" lon="6.88949"><ele>414</ele><time>2011-10-03T09:57:01Z</time></trkpt><trkpt lat="50.46290" lon="6.88964"><ele>414</ele><time>2011-10-03T09:57:07Z</time></trkpt><trkpt lat="50.46272" lon="6.88988"><ele>415</ele><time>2011-10-03T09:57:17Z</time></trkpt><trkpt lat="50.46268" lon="6.88991"><ele>415</ele><time>2011-10-03T09:57:19Z</time></trkpt><trkpt lat="50.46263" lon="6.88997"><ele>416</ele><time>2011-10-03T09:57:22Z</time></trkpt><trkpt lat="50.46247" lon="6.89017"><ele>417</ele><time>2011-10-03T09:57:31Z</time></trkpt><trkpt lat="50.46242" lon="6.89022"><ele>417</ele><time>2011-10-03T09:57:34Z</time></trkpt><trkpt lat="50.46225" lon="6.89035"><ele>417</ele><time>2011-10-03T09:57:41Z</time></trkpt><trkpt lat="50.46223" lon="6.89037"><ele>417</ele><time>2011-10-03T09:57:42Z</time></trkpt><trkpt lat="50.46218" lon="6.89041"><ele>418</ele><time>2011-10-03T09:57:44Z</time></trkpt><trkpt lat="50.46196" lon="6.89059"><ele>418</ele><time>2011-10-03T09:57:54Z</time></trkpt><trkpt lat="50.46193" lon="6.89061"><ele>419</ele><time>2011-10-03T09:57:56Z</time></trkpt><trkpt lat="50.46189" lon="6.89063"><ele>419</ele><time>2011-10-03T09:57:58Z</time></trkpt><trkpt lat="50.46180" lon="6.89070"><ele>419</ele><time>2011-10-03T09:58:03Z</time></trkpt><trkpt lat="50.46174" lon="6.89075"><ele>420</ele><time>2011-10-03T09:58:06Z</time></trkpt><trkpt lat="50.46172" lon="6.89077"><ele>420</ele><time>2011-10-03T09:58:07Z</time></trkpt><trkpt lat="50.46167" lon="6.89079"><ele>420</ele><time>2011-10-03T09:58:09Z</time></trkpt><trkpt lat="50.46159" lon="6.89086"><ele>420</ele><time>2011-10-03T09:58:13Z</time></trkpt><trkpt lat="50.46132" lon="6.89104"><ele>422</ele><time>2011-10-03T09:58:26Z</time></trkpt><trkpt lat="50.46129" lon="6.89106"><ele>422</ele><time>2011-10-03T09:58:27Z</time></trkpt><trkpt lat="50.46120" lon="6.89114"><ele>422</ele><time>2011-10-03T09:58:31Z</time></trkpt><trkpt lat="50.46104" lon="6.89129"><ele>423</ele><time>2011-10-03T09:58:39Z</time></trkpt><trkpt lat="50.46102" lon="6.89132"><ele>423</ele><time>2011-10-03T09:58:40Z</time></trkpt><trkpt lat="50.46093" lon="6.89143"><ele>423</ele><time>2011-10-03T09:58:44Z</time></trkpt><trkpt lat="50.46088" lon="6.89150"><ele>423</ele><time>2011-10-03T09:58:47Z</time></trkpt><trkpt lat="50.46085" lon="6.89155"><ele>423</ele><time>2011-10-03T09:58:49Z</time></trkpt><trkpt lat="50.46081" lon="6.89164"><ele>424</ele><time>2011-10-03T09:58:52Z</time></trkpt><trkpt lat="50.46042" lon="6.89251"><ele>423</ele><time>2011-10-03T09:59:12Z</time></trkpt><trkpt lat="50.46036" lon="6.89262"><ele>423</ele><time>2011-10-03T09:59:14Z</time></trkpt><trkpt lat="50.46027" lon="6.89277"><ele>422</ele><time>2011-10-03T09:59:17Z</time></trkpt><trkpt lat="50.46023" lon="6.89280"><ele>422</ele><time>2011-10-03T09:59:18Z</time></trkpt><trkpt lat="50.45974" lon="6.89330"><ele>422</ele><time>2011-10-03T09:59:33Z</time></trkpt><trkpt lat="50.45969" lon="6.89337"><ele>422</ele><time>2011-10-03T09:59:35Z</time></trkpt><trkpt lat="50.45967" lon="6.89341"><ele>422</ele><time>2011-10-03T09:59:36Z</time></trkpt><trkpt lat="50.45965" lon="6.89347"><ele>422</ele><time>2011-10-03T09:59:37Z</time></trkpt><trkpt lat="50.45962" lon="6.89363"><ele>422</ele><time>2011-10-03T09:59:40Z</time></trkpt><trkpt lat="50.45960" lon="6.89368"><ele>422</ele><time>2011-10-03T09:59:41Z</time></trkpt><trkpt lat="50.45959" lon="6.89374"><ele>422</ele><time>2011-10-03T09:59:42Z</time></trkpt><trkpt lat="50.45952" lon="6.89394"><ele>421</ele><time>2011-10-03T09:59:47Z</time></trkpt><trkpt lat="50.45948" lon="6.89403"><ele>421</ele><time>2011-10-03T09:59:49Z</time></trkpt><trkpt lat="50.45937" lon="6.89428"><ele>421</ele><time>2011-10-03T09:59:54Z</time></trkpt><trkpt lat="50.45933" lon="6.89446"><ele>421</ele><time>2011-10-03T09:59:58Z</time></trkpt><trkpt lat="50.45934" lon="6.89460"><ele>421</ele><time>2011-10-03T10:00:01Z</time></trkpt><trkpt lat="50.45936" lon="6.89492"><ele>421</ele><time>2011-10-03T10:00:07Z</time></trkpt><trkpt lat="50.45935" lon="6.89503"><ele>422</ele><time>2011-10-03T10:00:09Z</time></trkpt><trkpt lat="50.45934" lon="6.89508"><ele>422</ele><time>2011-10-03T10:00:10Z</time></trkpt><trkpt lat="50.45932" lon="6.89512"><ele>422</ele><time>2011-10-03T10:00:11Z</time></trkpt><trkpt lat="50.45930" lon="6.89517"><ele>422</ele><time>2011-10-03T10:00:12Z</time></trkpt><trkpt lat="50.45928" lon="6.89520"><ele>422</ele><time>2011-10-03T10:00:13Z</time></trkpt><trkpt lat="50.45923" lon="6.89525"><ele>422</ele><time>2011-10-03T10:00:16Z</time></trkpt><trkpt lat="50.45919" lon="6.89529"><ele>422</ele><time>2011-10-03T10:00:21Z</time></trkpt><trkpt lat="50.45922" lon="6.89523"><ele>422</ele><time>2011-10-03T10:01:16Z</time></trkpt><trkpt lat="50.45918" lon="6.89528"><ele>422</ele><time>2011-10-03T10:01:31Z</time></trkpt><trkpt lat="50.45915" lon="6.89528"><ele>422</ele><time>2011-10-03T10:01:42Z</time></trkpt><trkpt lat="50.45915" lon="6.89528"><ele>422</ele><time>2011-10-03T10:01:42Z</time></trkpt><trkpt lat="50.45915" lon="6.89527"><ele>422</ele><time>2011-10-03T10:02:04Z</time></trkpt><trkpt lat="50.45916" lon="6.89518"><ele>422</ele><time>2011-10-03T10:03:29Z</time></trkpt><trkpt lat="50.45918" lon="6.89530"><ele>422</ele><time>2011-10-03T10:03:58Z</time></trkpt><trkpt lat="50.45916" lon="6.89535"><ele>421</ele><time>2011-10-03T10:04:05Z</time></trkpt><trkpt lat="50.45917" lon="6.89530"><ele>421</ele><time>2011-10-03T10:04:16Z</time></trkpt><trkpt lat="50.45921" lon="6.89535"><ele>421</ele><time>2011-10-03T10:04:34Z</time></trkpt><trkpt lat="50.45922" lon="6.89537"><ele>421</ele><time>2011-10-03T10:04:35Z</time></trkpt><trkpt lat="50.45921" lon="6.89543"><ele>421</ele><time>2011-10-03T10:04:37Z</time></trkpt><trkpt lat="50.45921" lon="6.89550"><ele>421</ele><time>2011-10-03T10:04:39Z</time></trkpt><trkpt lat="50.45920" lon="6.89555"><ele>421</ele><time>2011-10-03T10:04:41Z</time></trkpt><trkpt lat="50.45916" lon="6.89591"><ele>421</ele><time>2011-10-03T10:04:52Z</time></trkpt><trkpt lat="50.45916" lon="6.89595"><ele>421</ele><time>2011-10-03T10:04:53Z</time></trkpt><trkpt lat="50.45914" lon="6.89611"><ele>421</ele><time>2011-10-03T10:04:57Z</time></trkpt><trkpt lat="50.45913" lon="6.89621"><ele>421</ele><time>2011-10-03T10:05:00Z</time></trkpt><trkpt lat="50.45906" lon="6.89643"><ele>421</ele><time>2011-10-03T10:05:06Z</time></trkpt><trkpt lat="50.45902" lon="6.89651"><ele>421</ele><time>2011-10-03T10:05:08Z</time></trkpt><trkpt lat="50.45892" lon="6.89671"><ele>421</ele><time>2011-10-03T10:05:13Z</time></trkpt><trkpt lat="50.45891" lon="6.89680"><ele>421</ele><time>2011-10-03T10:05:15Z</time></trkpt><trkpt lat="50.45890" lon="6.89690"><ele>420</ele><time>2011-10-03T10:05:17Z</time></trkpt><trkpt lat="50.45913" lon="6.89724"><ele>420</ele><time>2011-10-03T10:05:19Z</time></trkpt><trkpt lat="50.45904" lon="6.89737"><ele>421</ele><time>2011-10-03T10:05:21Z</time></trkpt><trkpt lat="50.45906" lon="6.89747"><ele>423</ele><time>2011-10-03T10:05:22Z</time></trkpt><trkpt lat="50.45904" lon="6.89761"><ele>426</ele><time>2011-10-03T10:05:24Z</time></trkpt><trkpt lat="50.45902" lon="6.89771"><ele>426</ele><time>2011-10-03T10:05:26Z</time></trkpt><trkpt lat="50.45893" lon="6.89817"><ele>426</ele><time>2011-10-03T10:05:33Z</time></trkpt><trkpt lat="50.45893" lon="6.89825"><ele>426</ele><time>2011-10-03T10:05:34Z</time></trkpt><trkpt lat="50.45890" lon="6.89878"><ele>424</ele><time>2011-10-03T10:05:41Z</time></trkpt><trkpt lat="50.45888" lon="6.89886"><ele>423</ele><time>2011-10-03T10:05:42Z</time></trkpt><trkpt lat="50.45887" lon="6.89905"><ele>422</ele><time>2011-10-03T10:05:44Z</time></trkpt><trkpt lat="50.45884" lon="6.89934"><ele>421</ele><time>2011-10-03T10:05:47Z</time></trkpt><trkpt lat="50.45882" lon="6.89944"><ele>421</ele><time>2011-10-03T10:05:48Z</time></trkpt><trkpt lat="50.45868" lon="6.90010"><ele>418</ele><time>2011-10-03T10:05:54Z</time></trkpt><trkpt lat="50.45865" lon="6.90019"><ele>417</ele><time>2011-10-03T10:05:55Z</time></trkpt><trkpt lat="50.45862" lon="6.90029"><ele>417</ele><time>2011-10-03T10:05:56Z</time></trkpt><trkpt lat="50.45854" lon="6.90047"><ele>416</ele><time>2011-10-03T10:05:58Z</time></trkpt><trkpt lat="50.45824" lon="6.90116"><ele>412</ele><time>2011-10-03T10:06:06Z</time></trkpt><trkpt lat="50.45821" lon="6.90123"><ele>412</ele><time>2011-10-03T10:06:07Z</time></trkpt><trkpt lat="50.45779" lon="6.90215"><ele>409</ele><time>2011-10-03T10:06:26Z</time></trkpt><trkpt lat="50.45769" lon="6.90240"><ele>409</ele><time>2011-10-03T10:06:32Z</time></trkpt><trkpt lat="50.45764" lon="6.90254"><ele>409</ele><time>2011-10-03T10:06:35Z</time></trkpt><trkpt lat="50.45763" lon="6.90259"><ele>408</ele><time>2011-10-03T10:06:36Z</time></trkpt><trkpt lat="50.45733" lon="6.90354"><ele>406</ele><time>2011-10-03T10:06:58Z</time></trkpt><trkpt lat="50.45731" lon="6.90365"><ele>406</ele><time>2011-10-03T10:07:00Z</time></trkpt><trkpt lat="50.45727" lon="6.90380"><ele>406</ele><time>2011-10-03T10:07:03Z</time></trkpt><trkpt lat="50.45724" lon="6.90390"><ele>406</ele><time>2011-10-03T10:07:05Z</time></trkpt><trkpt lat="50.45721" lon="6.90396"><ele>406</ele><time>2011-10-03T10:07:07Z</time></trkpt><trkpt lat="50.45711" lon="6.90424"><ele>405</ele><time>2011-10-03T10:07:14Z</time></trkpt><trkpt lat="50.45708" lon="6.90432"><ele>405</ele><time>2011-10-03T10:07:16Z</time></trkpt><trkpt lat="50.45706" lon="6.90442"><ele>405</ele><time>2011-10-03T10:07:18Z</time></trkpt><trkpt lat="50.45700" lon="6.90459"><ele>405</ele><time>2011-10-03T10:07:22Z</time></trkpt><trkpt lat="50.45696" lon="6.90471"><ele>405</ele><time>2011-10-03T10:07:25Z</time></trkpt><trkpt lat="50.45695" lon="6.90474"><ele>405</ele><time>2011-10-03T10:07:26Z</time></trkpt><trkpt lat="50.45689" lon="6.90491"><ele>405</ele><time>2011-10-03T10:07:31Z</time></trkpt><trkpt lat="50.45687" lon="6.90496"><ele>405</ele><time>2011-10-03T10:07:32Z</time></trkpt><trkpt lat="50.45683" lon="6.90508"><ele>405</ele><time>2011-10-03T10:07:35Z</time></trkpt><trkpt lat="50.45676" lon="6.90522"><ele>404</ele><time>2011-10-03T10:07:40Z</time></trkpt><trkpt lat="50.45669" lon="6.90533"><ele>404</ele><time>2011-10-03T10:07:44Z</time></trkpt><trkpt lat="50.45663" lon="6.90545"><ele>404</ele><time>2011-10-03T10:07:48Z</time></trkpt><trkpt lat="50.45650" lon="6.90561"><ele>404</ele><time>2011-10-03T10:07:52Z</time></trkpt><trkpt lat="50.45633" lon="6.90575"><ele>405</ele><time>2011-10-03T10:08:00Z</time></trkpt><trkpt lat="50.45623" lon="6.90579"><ele>406</ele><time>2011-10-03T10:08:04Z</time></trkpt><trkpt lat="50.45612" lon="6.90589"><ele>406</ele><time>2011-10-03T10:08:08Z</time></trkpt><trkpt lat="50.45603" lon="6.90598"><ele>407</ele><time>2011-10-03T10:08:12Z</time></trkpt><trkpt lat="50.45594" lon="6.90603"><ele>408</ele><time>2011-10-03T10:08:14Z</time></trkpt><trkpt lat="50.45587" lon="6.90609"><ele>409</ele><time>2011-10-03T10:08:17Z</time></trkpt><trkpt lat="50.45582" lon="6.90614"><ele>409</ele><time>2011-10-03T10:08:19Z</time></trkpt><trkpt lat="50.45581" lon="6.90618"><ele>409</ele><time>2011-10-03T10:08:20Z</time></trkpt><trkpt lat="50.45575" lon="6.90638"><ele>410</ele><time>2011-10-03T10:08:25Z</time></trkpt><trkpt lat="50.45573" lon="6.90646"><ele>410</ele><time>2011-10-03T10:08:27Z</time></trkpt><trkpt lat="50.45572" lon="6.90655"><ele>411</ele><time>2011-10-03T10:08:29Z</time></trkpt><trkpt lat="50.45573" lon="6.90664"><ele>411</ele><time>2011-10-03T10:08:31Z</time></trkpt><trkpt lat="50.45577" lon="6.90696"><ele>412</ele><time>2011-10-03T10:08:37Z</time></trkpt><trkpt lat="50.45582" lon="6.90727"><ele>412</ele><time>2011-10-03T10:08:43Z</time></trkpt><trkpt lat="50.45584" lon="6.90737"><ele>412</ele><time>2011-10-03T10:08:45Z</time></trkpt><trkpt lat="50.45593" lon="6.90769"><ele>413</ele><time>2011-10-03T10:08:51Z</time></trkpt><trkpt lat="50.45599" lon="6.90779"><ele>413</ele><time>2011-10-03T10:08:53Z</time></trkpt><trkpt lat="50.45629" lon="6.90826"><ele>413</ele><time>2011-10-03T10:09:02Z</time></trkpt><trkpt lat="50.45635" lon="6.90834"><ele>413</ele><time>2011-10-03T10:09:04Z</time></trkpt><trkpt lat="50.45639" lon="6.90840"><ele>413</ele><time>2011-10-03T10:09:06Z</time></trkpt><trkpt lat="50.45644" lon="6.90850"><ele>413</ele><time>2011-10-03T10:09:08Z</time></trkpt><trkpt lat="50.45652" lon="6.90866"><ele>413</ele><time>2011-10-03T10:09:11Z</time></trkpt><trkpt lat="50.45656" lon="6.90879"><ele>413</ele><time>2011-10-03T10:09:13Z</time></trkpt><trkpt lat="50.45657" lon="6.90885"><ele>413</ele><time>2011-10-03T10:09:14Z</time></trkpt><trkpt lat="50.45661" lon="6.90904"><ele>412</ele><time>2011-10-03T10:09:17Z</time></trkpt><trkpt lat="50.45661" lon="6.90911"><ele>412</ele><time>2011-10-03T10:09:18Z</time></trkpt><trkpt lat="50.45661" lon="6.90917"><ele>411</ele><time>2011-10-03T10:09:19Z</time></trkpt><trkpt lat="50.45661" lon="6.90937"><ele>410</ele><time>2011-10-03T10:09:22Z</time></trkpt><trkpt lat="50.45660" lon="6.90943"><ele>410</ele><time>2011-10-03T10:09:23Z</time></trkpt><trkpt lat="50.45658" lon="6.90998"><ele>408</ele><time>2011-10-03T10:09:32Z</time></trkpt><trkpt lat="50.45657" lon="6.91004"><ele>408</ele><time>2011-10-03T10:09:33Z</time></trkpt><trkpt lat="50.45657" lon="6.91009"><ele>408</ele><time>2011-10-03T10:09:34Z</time></trkpt><trkpt lat="50.45656" lon="6.91027"><ele>408</ele><time>2011-10-03T10:09:37Z</time></trkpt><trkpt lat="50.45656" lon="6.91033"><ele>408</ele><time>2011-10-03T10:09:38Z</time></trkpt><trkpt lat="50.45657" lon="6.91048"><ele>408</ele><time>2011-10-03T10:09:41Z</time></trkpt><trkpt lat="50.45658" lon="6.91053"><ele>407</ele><time>2011-10-03T10:09:42Z</time></trkpt><trkpt lat="50.45676" lon="6.91151"><ele>405</ele><time>2011-10-03T10:09:59Z</time></trkpt><trkpt lat="50.45676" lon="6.91157"><ele>405</ele><time>2011-10-03T10:10:00Z</time></trkpt><trkpt lat="50.45676" lon="6.91163"><ele>405</ele><time>2011-10-03T10:10:01Z</time></trkpt><trkpt lat="50.45677" lon="6.91235"><ele>398</ele><time>2011-10-03T10:10:13Z</time></trkpt><trkpt lat="50.45677" lon="6.91241"><ele>397</ele><time>2011-10-03T10:10:14Z</time></trkpt><trkpt lat="50.45677" lon="6.91260"><ele>396</ele><time>2011-10-03T10:10:17Z</time></trkpt><trkpt lat="50.45677" lon="6.91266"><ele>395</ele><time>2011-10-03T10:10:18Z</time></trkpt><trkpt lat="50.45678" lon="6.91272"><ele>395</ele><time>2011-10-03T10:10:19Z</time></trkpt><trkpt lat="50.45678" lon="6.91401"><ele>391</ele><time>2011-10-03T10:10:37Z</time></trkpt><trkpt lat="50.45677" lon="6.91438"><ele>390</ele><time>2011-10-03T10:10:42Z</time></trkpt><trkpt lat="50.45677" lon="6.91446"><ele>390</ele><time>2011-10-03T10:10:43Z</time></trkpt><trkpt lat="50.45678" lon="6.91484"><ele>389</ele><time>2011-10-03T10:10:49Z</time></trkpt><trkpt lat="50.45678" lon="6.91491"><ele>389</ele><time>2011-10-03T10:10:50Z</time></trkpt><trkpt lat="50.45678" lon="6.91496"><ele>389</ele><time>2011-10-03T10:10:51Z</time></trkpt><trkpt lat="50.45678" lon="6.91502"><ele>389</ele><time>2011-10-03T10:10:52Z</time></trkpt><trkpt lat="50.45678" lon="6.91507"><ele>389</ele><time>2011-10-03T10:10:53Z</time></trkpt><trkpt lat="50.45679" lon="6.91523"><ele>389</ele><time>2011-10-03T10:10:56Z</time></trkpt><trkpt lat="50.45679" lon="6.91529"><ele>389</ele><time>2011-10-03T10:10:57Z</time></trkpt><trkpt lat="50.45679" lon="6.91535"><ele>389</ele><time>2011-10-03T10:10:58Z</time></trkpt><trkpt lat="50.45679" lon="6.91541"><ele>389</ele><time>2011-10-03T10:10:59Z</time></trkpt><trkpt lat="50.45679" lon="6.91546"><ele>389</ele><time>2011-10-03T10:11:00Z</time></trkpt><trkpt lat="50.45679" lon="6.91564"><ele>389</ele><time>2011-10-03T10:11:03Z</time></trkpt><trkpt lat="50.45679" lon="6.91570"><ele>388</ele><time>2011-10-03T10:11:04Z</time></trkpt><trkpt lat="50.45678" lon="6.91577"><ele>388</ele><time>2011-10-03T10:11:05Z</time></trkpt><trkpt lat="50.45677" lon="6.91595"><ele>388</ele><time>2011-10-03T10:11:08Z</time></trkpt><trkpt lat="50.45676" lon="6.91601"><ele>388</ele><time>2011-10-03T10:11:09Z</time></trkpt><trkpt lat="50.45669" lon="6.91642"><ele>387</ele><time>2011-10-03T10:11:19Z</time></trkpt><trkpt lat="50.45669" lon="6.91650"><ele>387</ele><time>2011-10-03T10:11:21Z</time></trkpt><trkpt lat="50.45672" lon="6.91660"><ele>386</ele><time>2011-10-03T10:11:24Z</time></trkpt><trkpt lat="50.45676" lon="6.91665"><ele>386</ele><time>2011-10-03T10:11:26Z</time></trkpt><trkpt lat="50.45681" lon="6.91667"><ele>385</ele><time>2011-10-03T10:11:29Z</time></trkpt><trkpt lat="50.45686" lon="6.91668"><ele>385</ele><time>2011-10-03T10:11:32Z</time></trkpt><trkpt lat="50.45737" lon="6.91680"><ele>380</ele><time>2011-10-03T10:11:50Z</time></trkpt><trkpt lat="50.45743" lon="6.91685"><ele>379</ele><time>2011-10-03T10:11:52Z</time></trkpt><trkpt lat="50.45747" lon="6.91690"><ele>379</ele><time>2011-10-03T10:11:54Z</time></trkpt><trkpt lat="50.45756" lon="6.91704"><ele>378</ele><time>2011-10-03T10:12:00Z</time></trkpt><trkpt lat="50.45757" lon="6.91714"><ele>378</ele><time>2011-10-03T10:12:04Z</time></trkpt><trkpt lat="50.45756" lon="6.91723"><ele>378</ele><time>2011-10-03T10:12:07Z</time></trkpt><trkpt lat="50.45754" lon="6.91731"><ele>378</ele><time>2011-10-03T10:12:10Z</time></trkpt><trkpt lat="50.45750" lon="6.91750"><ele>378</ele><time>2011-10-03T10:12:15Z</time></trkpt><trkpt lat="50.45748" lon="6.91754"><ele>378</ele><time>2011-10-03T10:12:16Z</time></trkpt><trkpt lat="50.45740" lon="6.91777"><ele>378</ele><time>2011-10-03T10:12:22Z</time></trkpt><trkpt lat="50.45738" lon="6.91785"><ele>378</ele><time>2011-10-03T10:12:24Z</time></trkpt><trkpt lat="50.45724" lon="6.91827"><ele>378</ele><time>2011-10-03T10:12:34Z</time></trkpt><trkpt lat="50.45721" lon="6.91836"><ele>378</ele><time>2011-10-03T10:12:36Z</time></trkpt><trkpt lat="50.45711" lon="6.91864"><ele>378</ele><time>2011-10-03T10:12:43Z</time></trkpt><trkpt lat="50.45707" lon="6.91870"><ele>378</ele><time>2011-10-03T10:12:45Z</time></trkpt><trkpt lat="50.45704" lon="6.91877"><ele>378</ele><time>2011-10-03T10:12:47Z</time></trkpt><trkpt lat="50.45700" lon="6.91886"><ele>378</ele><time>2011-10-03T10:12:50Z</time></trkpt><trkpt lat="50.45699" lon="6.91889"><ele>378</ele><time>2011-10-03T10:12:51Z</time></trkpt><trkpt lat="50.45697" lon="6.91892"><ele>378</ele><time>2011-10-03T10:12:52Z</time></trkpt><trkpt lat="50.45694" lon="6.91895"><ele>378</ele><time>2011-10-03T10:12:53Z</time></trkpt><trkpt lat="50.45687" lon="6.91903"><ele>378</ele><time>2011-10-03T10:12:56Z</time></trkpt><trkpt lat="50.45660" lon="6.91926"><ele>378</ele><time>2011-10-03T10:13:06Z</time></trkpt><trkpt lat="50.45650" lon="6.91933"><ele>378</ele><time>2011-10-03T10:13:10Z</time></trkpt><trkpt lat="50.45648" lon="6.91935"><ele>378</ele><time>2011-10-03T10:13:11Z</time></trkpt><trkpt lat="50.45639" lon="6.91941"><ele>377</ele><time>2011-10-03T10:13:16Z</time></trkpt><trkpt lat="50.45634" lon="6.91943"><ele>377</ele><time>2011-10-03T10:13:18Z</time></trkpt><trkpt lat="50.45629" lon="6.91944"><ele>377</ele><time>2011-10-03T10:13:20Z</time></trkpt><trkpt lat="50.45625" lon="6.91945"><ele>377</ele><time>2011-10-03T10:13:22Z</time></trkpt><trkpt lat="50.45614" lon="6.91944"><ele>377</ele><time>2011-10-03T10:13:27Z</time></trkpt><trkpt lat="50.45609" lon="6.91939"><ele>376</ele><time>2011-10-03T10:13:30Z</time></trkpt><trkpt lat="50.45606" lon="6.91933"><ele>376</ele><time>2011-10-03T10:13:32Z</time></trkpt><trkpt lat="50.45606" lon="6.91929"><ele>376</ele><time>2011-10-03T10:13:33Z</time></trkpt><trkpt lat="50.45605" lon="6.91920"><ele>376</ele><time>2011-10-03T10:13:35Z</time></trkpt><trkpt lat="50.45604" lon="6.91903"><ele>376</ele><time>2011-10-03T10:13:38Z</time></trkpt><trkpt lat="50.45604" lon="6.91897"><ele>376</ele><time>2011-10-03T10:13:39Z</time></trkpt><trkpt lat="50.45605" lon="6.91891"><ele>376</ele><time>2011-10-03T10:13:40Z</time></trkpt><trkpt lat="50.45607" lon="6.91876"><ele>376</ele><time>2011-10-03T10:13:43Z</time></trkpt><trkpt lat="50.45609" lon="6.91867"><ele>375</ele><time>2011-10-03T10:13:45Z</time></trkpt><trkpt lat="50.45617" lon="6.91835"><ele>375</ele><time>2011-10-03T10:13:54Z</time></trkpt><trkpt lat="50.45618" lon="6.91828"><ele>374</ele><time>2011-10-03T10:13:57Z</time></trkpt><trkpt lat="50.45614" lon="6.91819"><ele>374</ele><time>2011-10-03T10:14:01Z</time></trkpt><trkpt lat="50.45607" lon="6.91808"><ele>373</ele><time>2011-10-03T10:14:05Z</time></trkpt><trkpt lat="50.45598" lon="6.91797"><ele>373</ele><time>2011-10-03T10:14:10Z</time></trkpt><trkpt lat="50.45593" lon="6.91792"><ele>372</ele><time>2011-10-03T10:14:12Z</time></trkpt><trkpt lat="50.45579" lon="6.91780"><ele>371</ele><time>2011-10-03T10:14:18Z</time></trkpt><trkpt lat="50.45576" lon="6.91778"><ele>371</ele><time>2011-10-03T10:14:19Z</time></trkpt><trkpt lat="50.45561" lon="6.91771"><ele>370</ele><time>2011-10-03T10:14:26Z</time></trkpt><trkpt lat="50.45554" lon="6.91769"><ele>370</ele><time>2011-10-03T10:14:29Z</time></trkpt><trkpt lat="50.45548" lon="6.91767"><ele>370</ele><time>2011-10-03T10:14:32Z</time></trkpt><trkpt lat="50.45540" lon="6.91764"><ele>369</ele><time>2011-10-03T10:14:35Z</time></trkpt><trkpt lat="50.45535" lon="6.91759"><ele>369</ele><time>2011-10-03T10:14:37Z</time></trkpt><trkpt lat="50.45504" lon="6.91738"><ele>368</ele><time>2011-10-03T10:14:48Z</time></trkpt><trkpt lat="50.45502" lon="6.91735"><ele>368</ele><time>2011-10-03T10:14:49Z</time></trkpt><trkpt lat="50.45499" lon="6.91732"><ele>368</ele><time>2011-10-03T10:14:50Z</time></trkpt><trkpt lat="50.45470" lon="6.91698"><ele>368</ele><time>2011-10-03T10:15:00Z</time></trkpt><trkpt lat="50.45465" lon="6.91691"><ele>368</ele><time>2011-10-03T10:15:02Z</time></trkpt><trkpt lat="50.45458" lon="6.91680"><ele>368</ele><time>2011-10-03T10:15:05Z</time></trkpt><trkpt lat="50.45455" lon="6.91677"><ele>368</ele><time>2011-10-03T10:15:06Z</time></trkpt><trkpt lat="50.45452" lon="6.91674"><ele>368</ele><time>2011-10-03T10:15:07Z</time></trkpt><trkpt lat="50.45446" lon="6.91670"><ele>368</ele><time>2011-10-03T10:15:09Z</time></trkpt><trkpt lat="50.45443" lon="6.91669"><ele>368</ele><time>2011-10-03T10:15:10Z</time></trkpt><trkpt lat="50.45436" lon="6.91667"><ele>368</ele><time>2011-10-03T10:15:12Z</time></trkpt><trkpt lat="50.45432" lon="6.91667"><ele>368</ele><time>2011-10-03T10:15:13Z</time></trkpt><trkpt lat="50.45428" lon="6.91668"><ele>368</ele><time>2011-10-03T10:15:14Z</time></trkpt><trkpt lat="50.45422" lon="6.91672"><ele>368</ele><time>2011-10-03T10:15:16Z</time></trkpt><trkpt lat="50.45418" lon="6.91675"><ele>368</ele><time>2011-10-03T10:15:17Z</time></trkpt><trkpt lat="50.45410" lon="6.91685"><ele>368</ele><time>2011-10-03T10:15:20Z</time></trkpt><trkpt lat="50.45408" lon="6.91688"><ele>368</ele><time>2011-10-03T10:15:21Z</time></trkpt><trkpt lat="50.45405" lon="6.91692"><ele>368</ele><time>2011-10-03T10:15:22Z</time></trkpt><trkpt lat="50.45396" lon="6.91706"><ele>368</ele><time>2011-10-03T10:15:26Z</time></trkpt><trkpt lat="50.45394" lon="6.91709"><ele>368</ele><time>2011-10-03T10:15:27Z</time></trkpt><trkpt lat="50.45391" lon="6.91712"><ele>368</ele><time>2011-10-03T10:15:28Z</time></trkpt><trkpt lat="50.45385" lon="6.91717"><ele>368</ele><time>2011-10-03T10:15:30Z</time></trkpt><trkpt lat="50.45381" lon="6.91719"><ele>368</ele><time>2011-10-03T10:15:31Z</time></trkpt><trkpt lat="50.45374" lon="6.91720"><ele>368</ele><time>2011-10-03T10:15:33Z</time></trkpt><trkpt lat="50.45370" lon="6.91721"><ele>368</ele><time>2011-10-03T10:15:34Z</time></trkpt><trkpt lat="50.45358" lon="6.91719"><ele>368</ele><time>2011-10-03T10:15:37Z</time></trkpt><trkpt lat="50.45354" lon="6.91718"><ele>368</ele><time>2011-10-03T10:15:38Z</time></trkpt><trkpt lat="50.45281" lon="6.91698"><ele>368</ele><time>2011-10-03T10:15:57Z</time></trkpt><trkpt lat="50.45276" lon="6.91698"><ele>368</ele><time>2011-10-03T10:15:58Z</time></trkpt><trkpt lat="50.45250" lon="6.91692"><ele>368</ele><time>2011-10-03T10:16:04Z</time></trkpt><trkpt lat="50.45246" lon="6.91690"><ele>368</ele><time>2011-10-03T10:16:05Z</time></trkpt><trkpt lat="50.45219" lon="6.91684"><ele>368</ele><time>2011-10-03T10:16:11Z</time></trkpt><trkpt lat="50.45210" lon="6.91682"><ele>368</ele><time>2011-10-03T10:16:13Z</time></trkpt><trkpt lat="50.45201" lon="6.91682"><ele>368</ele><time>2011-10-03T10:16:15Z</time></trkpt><trkpt lat="50.45196" lon="6.91682"><ele>368</ele><time>2011-10-03T10:16:16Z</time></trkpt><trkpt lat="50.45151" lon="6.91690"><ele>367</ele><time>2011-10-03T10:16:26Z</time></trkpt><trkpt lat="50.45147" lon="6.91690"><ele>366</ele><time>2011-10-03T10:16:27Z</time></trkpt><trkpt lat="50.45125" lon="6.91686"><ele>365</ele><time>2011-10-03T10:16:32Z</time></trkpt><trkpt lat="50.45121" lon="6.91685"><ele>365</ele><time>2011-10-03T10:16:33Z</time></trkpt><trkpt lat="50.45108" lon="6.91681"><ele>364</ele><time>2011-10-03T10:16:36Z</time></trkpt><trkpt lat="50.45104" lon="6.91679"><ele>364</ele><time>2011-10-03T10:16:37Z</time></trkpt><trkpt lat="50.45083" lon="6.91667"><ele>362</ele><time>2011-10-03T10:16:42Z</time></trkpt><trkpt lat="50.45079" lon="6.91663"><ele>362</ele><time>2011-10-03T10:16:43Z</time></trkpt><trkpt lat="50.45075" lon="6.91658"><ele>362</ele><time>2011-10-03T10:16:44Z</time></trkpt><trkpt lat="50.45066" lon="6.91644"><ele>361</ele><time>2011-10-03T10:16:47Z</time></trkpt><trkpt lat="50.45063" lon="6.91639"><ele>360</ele><time>2011-10-03T10:16:48Z</time></trkpt><trkpt lat="50.45058" lon="6.91627"><ele>360</ele><time>2011-10-03T10:16:50Z</time></trkpt><trkpt lat="50.45056" lon="6.91621"><ele>359</ele><time>2011-10-03T10:16:51Z</time></trkpt><trkpt lat="50.45050" lon="6.91603"><ele>358</ele><time>2011-10-03T10:16:54Z</time></trkpt><trkpt lat="50.45049" lon="6.91597"><ele>358</ele><time>2011-10-03T10:16:55Z</time></trkpt><trkpt lat="50.45033" lon="6.91534"><ele>355</ele><time>2011-10-03T10:17:04Z</time></trkpt><trkpt lat="50.45032" lon="6.91526"><ele>355</ele><time>2011-10-03T10:17:05Z</time></trkpt><trkpt lat="50.45026" lon="6.91497"><ele>353</ele><time>2011-10-03T10:17:09Z</time></trkpt><trkpt lat="50.45022" lon="6.91483"><ele>353</ele><time>2011-10-03T10:17:11Z</time></trkpt><trkpt lat="50.45019" lon="6.91477"><ele>352</ele><time>2011-10-03T10:17:12Z</time></trkpt><trkpt lat="50.45016" lon="6.91472"><ele>352</ele><time>2011-10-03T10:17:13Z</time></trkpt><trkpt lat="50.45007" lon="6.91457"><ele>351</ele><time>2011-10-03T10:17:16Z</time></trkpt><trkpt lat="50.45004" lon="6.91453"><ele>351</ele><time>2011-10-03T10:17:17Z</time></trkpt><trkpt lat="50.44978" lon="6.91423"><ele>349</ele><time>2011-10-03T10:17:24Z</time></trkpt><trkpt lat="50.44971" lon="6.91416"><ele>348</ele><time>2011-10-03T10:17:26Z</time></trkpt><trkpt lat="50.44965" lon="6.91411"><ele>348</ele><time>2011-10-03T10:17:28Z</time></trkpt><trkpt lat="50.44961" lon="6.91410"><ele>347</ele><time>2011-10-03T10:17:29Z</time></trkpt><trkpt lat="50.44954" lon="6.91410"><ele>346</ele><time>2011-10-03T10:17:31Z</time></trkpt><trkpt lat="50.44946" lon="6.91411"><ele>345</ele><time>2011-10-03T10:17:33Z</time></trkpt><trkpt lat="50.44937" lon="6.91411"><ele>343</ele><time>2011-10-03T10:17:35Z</time></trkpt><trkpt lat="50.44929" lon="6.91412"><ele>342</ele><time>2011-10-03T10:17:37Z</time></trkpt><trkpt lat="50.44916" lon="6.91414"><ele>341</ele><time>2011-10-03T10:17:40Z</time></trkpt><trkpt lat="50.44901" lon="6.91418"><ele>340</ele><time>2011-10-03T10:17:44Z</time></trkpt><trkpt lat="50.44894" lon="6.91422"><ele>340</ele><time>2011-10-03T10:17:46Z</time></trkpt><trkpt lat="50.44881" lon="6.91425"><ele>337</ele><time>2011-10-03T10:17:49Z</time></trkpt><trkpt lat="50.44840" lon="6.91437"><ele>332</ele><time>2011-10-03T10:17:58Z</time></trkpt><trkpt lat="50.44828" lon="6.91439"><ele>331</ele><time>2011-10-03T10:18:01Z</time></trkpt><trkpt lat="50.44820" lon="6.91438"><ele>331</ele><time>2011-10-03T10:18:03Z</time></trkpt><trkpt lat="50.44812" lon="6.91436"><ele>331</ele><time>2011-10-03T10:18:05Z</time></trkpt><trkpt lat="50.44802" lon="6.91432"><ele>331</ele><time>2011-10-03T10:18:08Z</time></trkpt><trkpt lat="50.44798" lon="6.91430"><ele>330</ele><time>2011-10-03T10:18:09Z</time></trkpt><trkpt lat="50.44794" lon="6.91428"><ele>329</ele><time>2011-10-03T10:18:10Z</time></trkpt><trkpt lat="50.44777" lon="6.91419"><ele>326</ele><time>2011-10-03T10:18:14Z</time></trkpt><trkpt lat="50.44768" lon="6.91416"><ele>325</ele><time>2011-10-03T10:18:16Z</time></trkpt><trkpt lat="50.44747" lon="6.91404"><ele>322</ele><time>2011-10-03T10:18:21Z</time></trkpt><trkpt lat="50.44732" lon="6.91395"><ele>319</ele><time>2011-10-03T10:18:24Z</time></trkpt><trkpt lat="50.44728" lon="6.91391"><ele>319</ele><time>2011-10-03T10:18:25Z</time></trkpt><trkpt lat="50.44719" lon="6.91384"><ele>317</ele><time>2011-10-03T10:18:27Z</time></trkpt><trkpt lat="50.44709" lon="6.91375"><ele>316</ele><time>2011-10-03T10:18:29Z</time></trkpt><trkpt lat="50.44701" lon="6.91366"><ele>316</ele><time>2011-10-03T10:18:31Z</time></trkpt><trkpt lat="50.44697" lon="6.91361"><ele>316</ele><time>2011-10-03T10:18:32Z</time></trkpt><trkpt lat="50.44691" lon="6.91352"><ele>315</ele><time>2011-10-03T10:18:34Z</time></trkpt><trkpt lat="50.44685" lon="6.91346"><ele>315</ele><time>2011-10-03T10:18:36Z</time></trkpt><trkpt lat="50.44683" lon="6.91345"><ele>315</ele><time>2011-10-03T10:18:37Z</time></trkpt><trkpt lat="50.44680" lon="6.91345"><ele>315</ele><time>2011-10-03T10:18:38Z</time></trkpt><trkpt lat="50.44678" lon="6.91346"><ele>315</ele><time>2011-10-03T10:18:39Z</time></trkpt><trkpt lat="50.44673" lon="6.91353"><ele>315</ele><time>2011-10-03T10:18:42Z</time></trkpt><trkpt lat="50.44672" lon="6.91365"><ele>315</ele><time>2011-10-03T10:18:45Z</time></trkpt><trkpt lat="50.44674" lon="6.91374"><ele>315</ele><time>2011-10-03T10:18:47Z</time></trkpt><trkpt lat="50.44675" lon="6.91384"><ele>315</ele><time>2011-10-03T10:18:49Z</time></trkpt><trkpt lat="50.44675" lon="6.91389"><ele>315</ele><time>2011-10-03T10:18:50Z</time></trkpt><trkpt lat="50.44676" lon="6.91394"><ele>315</ele><time>2011-10-03T10:18:51Z</time></trkpt><trkpt lat="50.44679" lon="6.91402"><ele>314</ele><time>2011-10-03T10:18:53Z</time></trkpt><trkpt lat="50.44699" lon="6.91461"><ele>308</ele><time>2011-10-03T10:19:04Z</time></trkpt><trkpt lat="50.44703" lon="6.91470"><ele>308</ele><time>2011-10-03T10:19:06Z</time></trkpt><trkpt lat="50.44716" lon="6.91491"><ele>308</ele><time>2011-10-03T10:19:11Z</time></trkpt><trkpt lat="50.44719" lon="6.91495"><ele>308</ele><time>2011-10-03T10:19:12Z</time></trkpt><trkpt lat="50.44721" lon="6.91499"><ele>307</ele><time>2011-10-03T10:19:13Z</time></trkpt><trkpt lat="50.44732" lon="6.91513"><ele>307</ele><time>2011-10-03T10:19:17Z</time></trkpt><trkpt lat="50.44733" lon="6.91517"><ele>307</ele><time>2011-10-03T10:19:18Z</time></trkpt><trkpt lat="50.44732" lon="6.91526"><ele>307</ele><time>2011-10-03T10:19:21Z</time></trkpt><trkpt lat="50.44730" lon="6.91527"><ele>307</ele><time>2011-10-03T10:19:22Z</time></trkpt><trkpt lat="50.44726" lon="6.91525"><ele>307</ele><time>2011-10-03T10:19:24Z</time></trkpt><trkpt lat="50.44723" lon="6.91524"><ele>307</ele><time>2011-10-03T10:19:25Z</time></trkpt><trkpt lat="50.44720" lon="6.91523"><ele>307</ele><time>2011-10-03T10:19:26Z</time></trkpt><trkpt lat="50.44702" lon="6.91510"><ele>306</ele><time>2011-10-03T10:19:32Z</time></trkpt><trkpt lat="50.44695" lon="6.91507"><ele>306</ele><time>2011-10-03T10:19:34Z</time></trkpt><trkpt lat="50.44692" lon="6.91506"><ele>306</ele><time>2011-10-03T10:19:35Z</time></trkpt><trkpt lat="50.44681" lon="6.91505"><ele>306</ele><time>2011-10-03T10:19:38Z</time></trkpt><trkpt lat="50.44677" lon="6.91505"><ele>305</ele><time>2011-10-03T10:19:39Z</time></trkpt><trkpt lat="50.44667" lon="6.91505"><ele>305</ele><time>2011-10-03T10:19:42Z</time></trkpt><trkpt lat="50.44663" lon="6.91505"><ele>305</ele><time>2011-10-03T10:19:43Z</time></trkpt><trkpt lat="50.44617" lon="6.91514"><ele>303</ele><time>2011-10-03T10:19:56Z</time></trkpt><trkpt lat="50.44614" lon="6.91513"><ele>303</ele><time>2011-10-03T10:19:57Z</time></trkpt><trkpt lat="50.44604" lon="6.91510"><ele>302</ele><time>2011-10-03T10:20:00Z</time></trkpt><trkpt lat="50.44601" lon="6.91509"><ele>302</ele><time>2011-10-03T10:20:01Z</time></trkpt><trkpt lat="50.44590" lon="6.91501"><ele>301</ele><time>2011-10-03T10:20:04Z</time></trkpt><trkpt lat="50.44580" lon="6.91492"><ele>301</ele><time>2011-10-03T10:20:07Z</time></trkpt><trkpt lat="50.44575" lon="6.91485"><ele>300</ele><time>2011-10-03T10:20:09Z</time></trkpt><trkpt lat="50.44567" lon="6.91474"><ele>299</ele><time>2011-10-03T10:20:12Z</time></trkpt><trkpt lat="50.44564" lon="6.91465"><ele>299</ele><time>2011-10-03T10:20:14Z</time></trkpt><trkpt lat="50.44562" lon="6.91460"><ele>299</ele><time>2011-10-03T10:20:15Z</time></trkpt><trkpt lat="50.44558" lon="6.91450"><ele>298</ele><time>2011-10-03T10:20:17Z</time></trkpt><trkpt lat="50.44553" lon="6.91430"><ele>297</ele><time>2011-10-03T10:20:21Z</time></trkpt><trkpt lat="50.44551" lon="6.91420"><ele>297</ele><time>2011-10-03T10:20:23Z</time></trkpt><trkpt lat="50.44542" lon="6.91374"><ele>285</ele><time>2011-10-03T10:20:31Z</time></trkpt><trkpt lat="50.44541" lon="6.91368"><ele>284</ele><time>2011-10-03T10:20:32Z</time></trkpt><trkpt lat="50.44538" lon="6.91349"><ele>282</ele><time>2011-10-03T10:20:35Z</time></trkpt><trkpt lat="50.44534" lon="6.91337"><ele>282</ele><time>2011-10-03T10:20:37Z</time></trkpt><trkpt lat="50.44532" lon="6.91332"><ele>282</ele><time>2011-10-03T10:20:38Z</time></trkpt><trkpt lat="50.44521" lon="6.91310"><ele>281</ele><time>2011-10-03T10:20:43Z</time></trkpt><trkpt lat="50.44516" lon="6.91300"><ele>279</ele><time>2011-10-03T10:20:45Z</time></trkpt><trkpt lat="50.44512" lon="6.91290"><ele>279</ele><time>2011-10-03T10:20:47Z</time></trkpt><trkpt lat="50.44500" lon="6.91269"><ele>278</ele><time>2011-10-03T10:20:52Z</time></trkpt><trkpt lat="50.44497" lon="6.91268"><ele>278</ele><time>2011-10-03T10:20:53Z</time></trkpt><trkpt lat="50.44492" lon="6.91273"><ele>278</ele><time>2011-10-03T10:20:56Z</time></trkpt><trkpt lat="50.44490" lon="6.91284"><ele>277</ele><time>2011-10-03T10:20:59Z</time></trkpt><trkpt lat="50.44490" lon="6.91295"><ele>277</ele><time>2011-10-03T10:21:02Z</time></trkpt><trkpt lat="50.44491" lon="6.91318"><ele>274</ele><time>2011-10-03T10:21:06Z</time></trkpt><trkpt lat="50.44490" lon="6.91326"><ele>274</ele><time>2011-10-03T10:21:07Z</time></trkpt><trkpt lat="50.44490" lon="6.91351"><ele>273</ele><time>2011-10-03T10:21:11Z</time></trkpt><trkpt lat="50.44491" lon="6.91367"><ele>272</ele><time>2011-10-03T10:21:14Z</time></trkpt><trkpt lat="50.44491" lon="6.91400"><ele>271</ele><time>2011-10-03T10:21:20Z</time></trkpt><trkpt lat="50.44489" lon="6.91411"><ele>270</ele><time>2011-10-03T10:21:22Z</time></trkpt><trkpt lat="50.44486" lon="6.91442"><ele>269</ele><time>2011-10-03T10:21:30Z</time></trkpt><trkpt lat="50.44485" lon="6.91452"><ele>269</ele><time>2011-10-03T10:21:32Z</time></trkpt><trkpt lat="50.44485" lon="6.91468"><ele>269</ele><time>2011-10-03T10:21:35Z</time></trkpt><trkpt lat="50.44486" lon="6.91486"><ele>268</ele><time>2011-10-03T10:21:38Z</time></trkpt><trkpt lat="50.44487" lon="6.91491"><ele>268</ele><time>2011-10-03T10:21:39Z</time></trkpt><trkpt lat="50.44488" lon="6.91501"><ele>268</ele><time>2011-10-03T10:21:41Z</time></trkpt><trkpt lat="50.44489" lon="6.91512"><ele>267</ele><time>2011-10-03T10:21:43Z</time></trkpt><trkpt lat="50.44494" lon="6.91545"><ele>263</ele><time>2011-10-03T10:21:48Z</time></trkpt><trkpt lat="50.44496" lon="6.91559"><ele>262</ele><time>2011-10-03T10:21:50Z</time></trkpt><trkpt lat="50.44512" lon="6.91640"><ele>257</ele><time>2011-10-03T10:22:03Z</time></trkpt><trkpt lat="50.44516" lon="6.91651"><ele>257</ele><time>2011-10-03T10:22:05Z</time></trkpt><trkpt lat="50.44520" lon="6.91671"><ele>257</ele><time>2011-10-03T10:22:09Z</time></trkpt><trkpt lat="50.44520" lon="6.91679"><ele>257</ele><time>2011-10-03T10:22:11Z</time></trkpt><trkpt lat="50.44517" lon="6.91679"><ele>258</ele><time>2011-10-03T10:22:13Z</time></trkpt><trkpt lat="50.44514" lon="6.91677"><ele>257</ele><time>2011-10-03T10:22:14Z</time></trkpt><trkpt lat="50.44512" lon="6.91673"><ele>257</ele><time>2011-10-03T10:22:15Z</time></trkpt><trkpt lat="50.44504" lon="6.91659"><ele>256</ele><time>2011-10-03T10:22:18Z</time></trkpt><trkpt lat="50.44490" lon="6.91628"><ele>254</ele><time>2011-10-03T10:22:24Z</time></trkpt><trkpt lat="50.44484" lon="6.91613"><ele>253</ele><time>2011-10-03T10:22:27Z</time></trkpt><trkpt lat="50.44464" lon="6.91559"><ele>251</ele><time>2011-10-03T10:22:38Z</time></trkpt><trkpt lat="50.44461" lon="6.91549"><ele>251</ele><time>2011-10-03T10:22:40Z</time></trkpt><trkpt lat="50.44454" lon="6.91518"><ele>249</ele><time>2011-10-03T10:22:47Z</time></trkpt><trkpt lat="50.44452" lon="6.91510"><ele>249</ele><time>2011-10-03T10:22:49Z</time></trkpt><trkpt lat="50.44441" lon="6.91484"><ele>244</ele><time>2011-10-03T10:22:54Z</time></trkpt><trkpt lat="50.44416" lon="6.91420"><ele>242</ele><time>2011-10-03T10:23:05Z</time></trkpt><trkpt lat="50.44406" lon="6.91400"><ele>241</ele><time>2011-10-03T10:23:09Z</time></trkpt><trkpt lat="50.44396" lon="6.91382"><ele>241</ele><time>2011-10-03T10:23:13Z</time></trkpt><trkpt lat="50.44391" lon="6.91370"><ele>241</ele><time>2011-10-03T10:23:15Z</time></trkpt><trkpt lat="50.44381" lon="6.91347"><ele>241</ele><time>2011-10-03T10:23:19Z</time></trkpt><trkpt lat="50.44373" lon="6.91337"><ele>241</ele><time>2011-10-03T10:23:22Z</time></trkpt><trkpt lat="50.44367" lon="6.91334"><ele>241</ele><time>2011-10-03T10:23:24Z</time></trkpt><trkpt lat="50.44360" lon="6.91332"><ele>241</ele><time>2011-10-03T10:23:26Z</time></trkpt><trkpt lat="50.44355" lon="6.91339"><ele>240</ele><time>2011-10-03T10:23:29Z</time></trkpt><trkpt lat="50.44354" lon="6.91347"><ele>240</ele><time>2011-10-03T10:23:31Z</time></trkpt><trkpt lat="50.44354" lon="6.91359"><ele>239</ele><time>2011-10-03T10:23:34Z</time></trkpt><trkpt lat="50.44355" lon="6.91404"><ele>235</ele><time>2011-10-03T10:23:45Z</time></trkpt><trkpt lat="50.44355" lon="6.91411"><ele>234</ele><time>2011-10-03T10:23:49Z</time></trkpt><trkpt lat="50.44355" lon="6.91420"><ele>232</ele><time>2011-10-03T10:23:55Z</time></trkpt><trkpt lat="50.44355" lon="6.91426"><ele>231</ele><time>2011-10-03T10:24:03Z</time></trkpt><trkpt lat="50.44350" lon="6.91420"><ele>229</ele><time>2011-10-03T10:24:09Z</time></trkpt><trkpt lat="50.44346" lon="6.91413"><ele>228</ele><time>2011-10-03T10:24:12Z</time></trkpt><trkpt lat="50.44345" lon="6.91411"><ele>228</ele><time>2011-10-03T10:24:13Z</time></trkpt><trkpt lat="50.44342" lon="6.91403"><ele>227</ele><time>2011-10-03T10:24:16Z</time></trkpt><trkpt lat="50.44332" lon="6.91376"><ele>224</ele><time>2011-10-03T10:24:26Z</time></trkpt><trkpt lat="50.44330" lon="6.91368"><ele>223</ele><time>2011-10-03T10:24:28Z</time></trkpt><trkpt lat="50.44326" lon="6.91357"><ele>222</ele><time>2011-10-03T10:24:31Z</time></trkpt><trkpt lat="50.44322" lon="6.91344"><ele>222</ele><time>2011-10-03T10:24:33Z</time></trkpt><trkpt lat="50.44316" lon="6.91317"><ele>223</ele><time>2011-10-03T10:24:37Z</time></trkpt><trkpt lat="50.44309" lon="6.91290"><ele>222</ele><time>2011-10-03T10:24:45Z</time></trkpt><trkpt lat="50.44306" lon="6.91270"><ele>221</ele><time>2011-10-03T10:24:52Z</time></trkpt><trkpt lat="50.44301" lon="6.91248"><ele>220</ele><time>2011-10-03T10:25:00Z</time></trkpt><trkpt lat="50.44294" lon="6.91217"><ele>220</ele><time>2011-10-03T10:25:08Z</time></trkpt><trkpt lat="50.44291" lon="6.91194"><ele>220</ele><time>2011-10-03T10:25:12Z</time></trkpt><trkpt lat="50.44289" lon="6.91173"><ele>221</ele><time>2011-10-03T10:25:15Z</time></trkpt><trkpt lat="50.44281" lon="6.91109"><ele>221</ele><time>2011-10-03T10:25:26Z</time></trkpt><trkpt lat="50.44281" lon="6.91104"><ele>221</ele><time>2011-10-03T10:25:27Z</time></trkpt><trkpt lat="50.44274" lon="6.91059"><ele>219</ele><time>2011-10-03T10:25:37Z</time></trkpt><trkpt lat="50.44274" lon="6.91054"><ele>219</ele><time>2011-10-03T10:25:38Z</time></trkpt><trkpt lat="50.44269" lon="6.91000"><ele>217</ele><time>2011-10-03T10:25:47Z</time></trkpt><trkpt lat="50.44269" lon="6.90979"><ele>217</ele><time>2011-10-03T10:25:51Z</time></trkpt><trkpt lat="50.44268" lon="6.90937"><ele>217</ele><time>2011-10-03T10:25:59Z</time></trkpt><trkpt lat="50.44269" lon="6.90928"><ele>217</ele><time>2011-10-03T10:26:01Z</time></trkpt><trkpt lat="50.44270" lon="6.90919"><ele>217</ele><time>2011-10-03T10:26:03Z</time></trkpt><trkpt lat="50.44270" lon="6.90915"><ele>217</ele><time>2011-10-03T10:26:04Z</time></trkpt><trkpt lat="50.44274" lon="6.90894"><ele>217</ele><time>2011-10-03T10:26:09Z</time></trkpt><trkpt lat="50.44278" lon="6.90864"><ele>219</ele><time>2011-10-03T10:26:15Z</time></trkpt><trkpt lat="50.44279" lon="6.90853"><ele>219</ele><time>2011-10-03T10:26:17Z</time></trkpt><trkpt lat="50.44284" lon="6.90811"><ele>221</ele><time>2011-10-03T10:26:24Z</time></trkpt><trkpt lat="50.44288" lon="6.90786"><ele>222</ele><time>2011-10-03T10:26:28Z</time></trkpt><trkpt lat="50.44290" lon="6.90782"><ele>223</ele><time>2011-10-03T10:26:29Z</time></trkpt><trkpt lat="50.44292" lon="6.90775"><ele>223</ele><time>2011-10-03T10:26:31Z</time></trkpt><trkpt lat="50.44300" lon="6.90761"><ele>224</ele><time>2011-10-03T10:26:36Z</time></trkpt><trkpt lat="50.44304" lon="6.90754"><ele>225</ele><time>2011-10-03T10:26:39Z</time></trkpt><trkpt lat="50.44318" lon="6.90731"><ele>225</ele><time>2011-10-03T10:26:48Z</time></trkpt><trkpt lat="50.44323" lon="6.90723"><ele>225</ele><time>2011-10-03T10:26:50Z</time></trkpt><trkpt lat="50.44327" lon="6.90712"><ele>225</ele><time>2011-10-03T10:26:52Z</time></trkpt><trkpt lat="50.44356" lon="6.90641"><ele>227</ele><time>2011-10-03T10:27:07Z</time></trkpt><trkpt lat="50.44358" lon="6.90637"><ele>227</ele><time>2011-10-03T10:27:08Z</time></trkpt><trkpt lat="50.44394" lon="6.90577"><ele>226</ele><time>2011-10-03T10:27:27Z</time></trkpt><trkpt lat="50.44428" lon="6.90570"><ele>226</ele><time>2011-10-03T10:27:44Z</time></trkpt><trkpt lat="50.44438" lon="6.90536"><ele>226</ele><time>2011-10-03T10:27:47Z</time></trkpt><trkpt lat="50.44464" lon="6.90528"><ele>225</ele><time>2011-10-03T10:27:51Z</time></trkpt><trkpt lat="50.44469" lon="6.90527"><ele>224</ele><time>2011-10-03T10:27:52Z</time></trkpt><trkpt lat="50.44483" lon="6.90521"><ele>223</ele><time>2011-10-03T10:27:56Z</time></trkpt><trkpt lat="50.44488" lon="6.90514"><ele>223</ele><time>2011-10-03T10:27:58Z</time></trkpt><trkpt lat="50.44496" lon="6.90495"><ele>222</ele><time>2011-10-03T10:28:01Z</time></trkpt><trkpt lat="50.44507" lon="6.90475"><ele>221</ele><time>2011-10-03T10:28:06Z</time></trkpt><trkpt lat="50.44515" lon="6.90468"><ele>221</ele><time>2011-10-03T10:28:09Z</time></trkpt><trkpt lat="50.44522" lon="6.90465"><ele>221</ele><time>2011-10-03T10:28:11Z</time></trkpt><trkpt lat="50.44542" lon="6.90454"><ele>220</ele><time>2011-10-03T10:28:18Z</time></trkpt><trkpt lat="50.44548" lon="6.90449"><ele>220</ele><time>2011-10-03T10:28:20Z</time></trkpt><trkpt lat="50.44553" lon="6.90444"><ele>220</ele><time>2011-10-03T10:28:22Z</time></trkpt><trkpt lat="50.44562" lon="6.90434"><ele>220</ele><time>2011-10-03T10:28:26Z</time></trkpt><trkpt lat="50.44568" lon="6.90431"><ele>221</ele><time>2011-10-03T10:28:28Z</time></trkpt><trkpt lat="50.44575" lon="6.90429"><ele>221</ele><time>2011-10-03T10:28:30Z</time></trkpt><trkpt lat="50.44583" lon="6.90428"><ele>222</ele><time>2011-10-03T10:28:32Z</time></trkpt><trkpt lat="50.44591" lon="6.90426"><ele>222</ele><time>2011-10-03T10:28:34Z</time></trkpt><trkpt lat="50.44599" lon="6.90420"><ele>223</ele><time>2011-10-03T10:28:36Z</time></trkpt><trkpt lat="50.44606" lon="6.90416"><ele>223</ele><time>2011-10-03T10:28:38Z</time></trkpt><trkpt lat="50.44623" lon="6.90412"><ele>223</ele><time>2011-10-03T10:28:43Z</time></trkpt><trkpt lat="50.44638" lon="6.90404"><ele>222</ele><time>2011-10-03T10:28:47Z</time></trkpt><trkpt lat="50.44659" lon="6.90397"><ele>222</ele><time>2011-10-03T10:28:53Z</time></trkpt><trkpt lat="50.44685" lon="6.90390"><ele>220</ele><time>2011-10-03T10:29:01Z</time></trkpt><trkpt lat="50.44697" lon="6.90377"><ele>220</ele><time>2011-10-03T10:29:05Z</time></trkpt><trkpt lat="50.44699" lon="6.90371"><ele>220</ele><time>2011-10-03T10:29:06Z</time></trkpt><trkpt lat="50.44704" lon="6.90360"><ele>220</ele><time>2011-10-03T10:29:08Z</time></trkpt><trkpt lat="50.44715" lon="6.90335"><ele>220</ele><time>2011-10-03T10:29:13Z</time></trkpt><trkpt lat="50.44724" lon="6.90320"><ele>220</ele><time>2011-10-03T10:29:16Z</time></trkpt><trkpt lat="50.44731" lon="6.90312"><ele>220</ele><time>2011-10-03T10:29:18Z</time></trkpt><trkpt lat="50.44739" lon="6.90305"><ele>220</ele><time>2011-10-03T10:29:20Z</time></trkpt><trkpt lat="50.44753" lon="6.90295"><ele>220</ele><time>2011-10-03T10:29:24Z</time></trkpt><trkpt lat="50.44756" lon="6.90293"><ele>220</ele><time>2011-10-03T10:29:25Z</time></trkpt><trkpt lat="50.44767" lon="6.90278"><ele>222</ele><time>2011-10-03T10:29:29Z</time></trkpt><trkpt lat="50.44775" lon="6.90259"><ele>225</ele><time>2011-10-03T10:29:33Z</time></trkpt><trkpt lat="50.44777" lon="6.90254"><ele>225</ele><time>2011-10-03T10:29:34Z</time></trkpt><trkpt lat="50.44781" lon="6.90247"><ele>226</ele><time>2011-10-03T10:29:36Z</time></trkpt><trkpt lat="50.44791" lon="6.90224"><ele>230</ele><time>2011-10-03T10:29:42Z</time></trkpt><trkpt lat="50.44792" lon="6.90217"><ele>231</ele><time>2011-10-03T10:29:43Z</time></trkpt><trkpt lat="50.44797" lon="6.90194"><ele>234</ele><time>2011-10-03T10:29:47Z</time></trkpt><trkpt lat="50.44801" lon="6.90172"><ele>236</ele><time>2011-10-03T10:29:53Z</time></trkpt><trkpt lat="50.44805" lon="6.90166"><ele>236</ele><time>2011-10-03T10:29:56Z</time></trkpt><trkpt lat="50.44811" lon="6.90152"><ele>234</ele><time>2011-10-03T10:30:04Z</time></trkpt><trkpt lat="50.44812" lon="6.90142"><ele>233</ele><time>2011-10-03T10:30:06Z</time></trkpt><trkpt lat="50.44812" lon="6.90131"><ele>233</ele><time>2011-10-03T10:30:08Z</time></trkpt><trkpt lat="50.44811" lon="6.90114"><ele>233</ele><time>2011-10-03T10:30:11Z</time></trkpt><trkpt lat="50.44811" lon="6.90103"><ele>233</ele><time>2011-10-03T10:30:14Z</time></trkpt><trkpt lat="50.44810" lon="6.90095"><ele>233</ele><time>2011-10-03T10:30:15Z</time></trkpt><trkpt lat="50.44804" lon="6.90091"><ele>235</ele><time>2011-10-03T10:31:27Z</time></trkpt><trkpt lat="50.44800" lon="6.90090"><ele>236</ele><time>2011-10-03T10:31:39Z</time></trkpt><trkpt lat="50.44803" lon="6.90095"><ele>236</ele><time>2011-10-03T10:32:02Z</time></trkpt><trkpt lat="50.44808" lon="6.90098"><ele>236</ele><time>2011-10-03T10:32:09Z</time></trkpt><trkpt lat="50.44803" lon="6.90095"><ele>236</ele><time>2011-10-03T10:32:39Z</time></trkpt><trkpt lat="50.44801" lon="6.90085"><ele>236</ele><time>2011-10-03T10:32:44Z</time></trkpt><trkpt lat="50.44801" lon="6.90075"><ele>236</ele><time>2011-10-03T10:32:46Z</time></trkpt><trkpt lat="50.44801" lon="6.90070"><ele>236</ele><time>2011-10-03T10:32:47Z</time></trkpt><trkpt lat="50.44802" lon="6.90058"><ele>236</ele><time>2011-10-03T10:32:49Z</time></trkpt><trkpt lat="50.44811" lon="6.90005"><ele>234</ele><time>2011-10-03T10:33:04Z</time></trkpt><trkpt lat="50.44811" lon="6.90001"><ele>234</ele><time>2011-10-03T10:33:05Z</time></trkpt><trkpt lat="50.44812" lon="6.89993"><ele>233</ele><time>2011-10-03T10:33:08Z</time></trkpt><trkpt lat="50.44812" lon="6.89983"><ele>232</ele><time>2011-10-03T10:33:14Z</time></trkpt><trkpt lat="50.44812" lon="6.89967"><ele>230</ele><time>2011-10-03T10:33:19Z</time></trkpt><trkpt lat="50.44812" lon="6.89957"><ele>230</ele><time>2011-10-03T10:33:22Z</time></trkpt><trkpt lat="50.44812" lon="6.89949"><ele>229</ele><time>2011-10-03T10:33:24Z</time></trkpt><trkpt lat="50.44811" lon="6.89922"><ele>228</ele><time>2011-10-03T10:33:31Z</time></trkpt><trkpt lat="50.44811" lon="6.89918"><ele>227</ele><time>2011-10-03T10:33:32Z</time></trkpt><trkpt lat="50.44808" lon="6.89898"><ele>226</ele><time>2011-10-03T10:33:37Z</time></trkpt><trkpt lat="50.44806" lon="6.89890"><ele>226</ele><time>2011-10-03T10:33:40Z</time></trkpt><trkpt lat="50.44803" lon="6.89875"><ele>225</ele><time>2011-10-03T10:33:44Z</time></trkpt><trkpt lat="50.44802" lon="6.89871"><ele>225</ele><time>2011-10-03T10:33:45Z</time></trkpt><trkpt lat="50.44801" lon="6.89863"><ele>225</ele><time>2011-10-03T10:33:47Z</time></trkpt><trkpt lat="50.44797" lon="6.89844"><ele>224</ele><time>2011-10-03T10:33:52Z</time></trkpt><trkpt lat="50.44796" lon="6.89835"><ele>224</ele><time>2011-10-03T10:33:54Z</time></trkpt><trkpt lat="50.44793" lon="6.89824"><ele>224</ele><time>2011-10-03T10:33:57Z</time></trkpt><trkpt lat="50.44789" lon="6.89793"><ele>224</ele><time>2011-10-03T10:34:08Z</time></trkpt><trkpt lat="50.44790" lon="6.89778"><ele>226</ele><time>2011-10-03T10:34:18Z</time></trkpt><trkpt lat="50.44793" lon="6.89774"><ele>227</ele><time>2011-10-03T10:35:12Z</time></trkpt><trkpt lat="50.44793" lon="6.89774"><ele>227</ele><time>2011-10-03T10:35:12Z</time></trkpt><trkpt lat="50.44792" lon="6.89774"><ele>232</ele><time>2011-10-03T10:43:56Z</time></trkpt><trkpt lat="50.44789" lon="6.89765"><ele>232</ele><time>2011-10-03T10:44:00Z</time></trkpt><trkpt lat="50.44785" lon="6.89750"><ele>232</ele><time>2011-10-03T10:44:05Z</time></trkpt><trkpt lat="50.44783" lon="6.89739"><ele>232</ele><time>2011-10-03T10:44:08Z</time></trkpt><trkpt lat="50.44782" lon="6.89735"><ele>232</ele><time>2011-10-03T10:44:09Z</time></trkpt><trkpt lat="50.44779" lon="6.89723"><ele>232</ele><time>2011-10-03T10:44:13Z</time></trkpt><trkpt lat="50.44776" lon="6.89712"><ele>232</ele><time>2011-10-03T10:44:16Z</time></trkpt><trkpt lat="50.44775" lon="6.89705"><ele>232</ele><time>2011-10-03T10:44:18Z</time></trkpt><trkpt lat="50.44774" lon="6.89702"><ele>232</ele><time>2011-10-03T10:44:19Z</time></trkpt><trkpt lat="50.44769" lon="6.89685"><ele>232</ele><time>2011-10-03T10:44:24Z</time></trkpt><trkpt lat="50.44767" lon="6.89677"><ele>232</ele><time>2011-10-03T10:44:27Z</time></trkpt><trkpt lat="50.44765" lon="6.89670"><ele>232</ele><time>2011-10-03T10:44:30Z</time></trkpt><trkpt lat="50.44761" lon="6.89661"><ele>231</ele><time>2011-10-03T10:44:33Z</time></trkpt><trkpt lat="50.44759" lon="6.89654"><ele>231</ele><time>2011-10-03T10:44:35Z</time></trkpt><trkpt lat="50.44754" lon="6.89640"><ele>231</ele><time>2011-10-03T10:44:39Z</time></trkpt><trkpt lat="50.44752" lon="6.89630"><ele>231</ele><time>2011-10-03T10:44:42Z</time></trkpt><trkpt lat="50.44755" lon="6.89627"><ele>231</ele><time>2011-10-03T10:44:44Z</time></trkpt><trkpt lat="50.44760" lon="6.89623"><ele>230</ele><time>2011-10-03T10:44:47Z</time></trkpt><trkpt lat="50.44771" lon="6.89616"><ele>230</ele><time>2011-10-03T10:44:52Z</time></trkpt><trkpt lat="50.44775" lon="6.89614"><ele>230</ele><time>2011-10-03T10:44:54Z</time></trkpt><trkpt lat="50.44780" lon="6.89608"><ele>229</ele><time>2011-10-03T10:44:57Z</time></trkpt><trkpt lat="50.44782" lon="6.89600"><ele>229</ele><time>2011-10-03T10:45:00Z</time></trkpt><trkpt lat="50.44781" lon="6.89589"><ele>229</ele><time>2011-10-03T10:45:05Z</time></trkpt><trkpt lat="50.44781" lon="6.89583"><ele>229</ele><time>2011-10-03T10:45:07Z</time></trkpt><trkpt lat="50.44781" lon="6.89574"><ele>229</ele><time>2011-10-03T10:45:10Z</time></trkpt><trkpt lat="50.44780" lon="6.89557"><ele>228</ele><time>2011-10-03T10:45:15Z</time></trkpt><trkpt lat="50.44780" lon="6.89553"><ele>228</ele><time>2011-10-03T10:45:16Z</time></trkpt><trkpt lat="50.44772" lon="6.89486"><ele>228</ele><time>2011-10-03T10:45:33Z</time></trkpt><trkpt lat="50.44772" lon="6.89481"><ele>228</ele><time>2011-10-03T10:45:34Z</time></trkpt><trkpt lat="50.44769" lon="6.89464"><ele>228</ele><time>2011-10-03T10:45:38Z</time></trkpt><trkpt lat="50.44769" lon="6.89459"><ele>228</ele><time>2011-10-03T10:45:39Z</time></trkpt><trkpt lat="50.44766" lon="6.89442"><ele>228</ele><time>2011-10-03T10:45:43Z</time></trkpt><trkpt lat="50.44766" lon="6.89438"><ele>228</ele><time>2011-10-03T10:45:44Z</time></trkpt><trkpt lat="50.44764" lon="6.89426"><ele>228</ele><time>2011-10-03T10:45:47Z</time></trkpt><trkpt lat="50.44763" lon="6.89422"><ele>228</ele><time>2011-10-03T10:45:48Z</time></trkpt><trkpt lat="50.44756" lon="6.89388"><ele>228</ele><time>2011-10-03T10:45:56Z</time></trkpt><trkpt lat="50.44754" lon="6.89372"><ele>228</ele><time>2011-10-03T10:45:59Z</time></trkpt><trkpt lat="50.44748" lon="6.89315"><ele>226</ele><time>2011-10-03T10:46:08Z</time></trkpt><trkpt lat="50.44747" lon="6.89307"><ele>226</ele><time>2011-10-03T10:46:09Z</time></trkpt><trkpt lat="50.44747" lon="6.89292"><ele>225</ele><time>2011-10-03T10:46:11Z</time></trkpt><trkpt lat="50.44747" lon="6.89278"><ele>225</ele><time>2011-10-03T10:46:13Z</time></trkpt><trkpt lat="50.44748" lon="6.89265"><ele>224</ele><time>2011-10-03T10:46:15Z</time></trkpt><trkpt lat="50.44750" lon="6.89252"><ele>224</ele><time>2011-10-03T10:46:17Z</time></trkpt><trkpt lat="50.44754" lon="6.89233"><ele>223</ele><time>2011-10-03T10:46:20Z</time></trkpt><trkpt lat="50.44757" lon="6.89220"><ele>223</ele><time>2011-10-03T10:46:22Z</time></trkpt><trkpt lat="50.44772" lon="6.89162"><ele>223</ele><time>2011-10-03T10:46:32Z</time></trkpt><trkpt lat="50.44777" lon="6.89147"><ele>222</ele><time>2011-10-03T10:46:35Z</time></trkpt><trkpt lat="50.44779" lon="6.89143"><ele>222</ele><time>2011-10-03T10:46:36Z</time></trkpt><trkpt lat="50.44787" lon="6.89121"><ele>222</ele><time>2011-10-03T10:46:41Z</time></trkpt><trkpt lat="50.44788" lon="6.89106"><ele>223</ele><time>2011-10-03T10:46:44Z</time></trkpt><trkpt lat="50.44788" lon="6.89101"><ele>223</ele><time>2011-10-03T10:46:45Z</time></trkpt><trkpt lat="50.44788" lon="6.89096"><ele>223</ele><time>2011-10-03T10:46:46Z</time></trkpt><trkpt lat="50.44787" lon="6.89075"><ele>223</ele><time>2011-10-03T10:46:51Z</time></trkpt><trkpt lat="50.44788" lon="6.89073"><ele>223</ele><time>2011-10-03T10:46:52Z</time></trkpt><trkpt lat="50.44789" lon="6.89064"><ele>222</ele><time>2011-10-03T10:46:56Z</time></trkpt><trkpt lat="50.44790" lon="6.89058"><ele>222</ele><time>2011-10-03T10:46:58Z</time></trkpt><trkpt lat="50.44792" lon="6.89052"><ele>222</ele><time>2011-10-03T10:47:00Z</time></trkpt><trkpt lat="50.44796" lon="6.89045"><ele>222</ele><time>2011-10-03T10:47:02Z</time></trkpt><trkpt lat="50.44798" lon="6.89042"><ele>222</ele><time>2011-10-03T10:47:03Z</time></trkpt><trkpt lat="50.44804" lon="6.89034"><ele>222</ele><time>2011-10-03T10:47:06Z</time></trkpt><trkpt lat="50.44813" lon="6.89022"><ele>221</ele><time>2011-10-03T10:47:12Z</time></trkpt><trkpt lat="50.44814" lon="6.89015"><ele>221</ele><time>2011-10-03T10:47:16Z</time></trkpt><trkpt lat="50.44818" lon="6.89012"><ele>221</ele><time>2011-10-03T10:47:22Z</time></trkpt><trkpt lat="50.44820" lon="6.89008"><ele>221</ele><time>2011-10-03T10:47:42Z</time></trkpt><trkpt lat="50.44823" lon="6.89005"><ele>221</ele><time>2011-10-03T10:47:45Z</time></trkpt><trkpt lat="50.44846" lon="6.88984"><ele>221</ele><time>2011-10-03T10:47:55Z</time></trkpt><trkpt lat="50.44851" lon="6.88980"><ele>222</ele><time>2011-10-03T10:47:57Z</time></trkpt><trkpt lat="50.44853" lon="6.88979"><ele>222</ele><time>2011-10-03T10:47:58Z</time></trkpt><trkpt lat="50.44856" lon="6.88978"><ele>222</ele><time>2011-10-03T10:47:59Z</time></trkpt><trkpt lat="50.44861" lon="6.88978"><ele>222</ele><time>2011-10-03T10:48:01Z</time></trkpt><trkpt lat="50.44863" lon="6.88978"><ele>222</ele><time>2011-10-03T10:48:02Z</time></trkpt><trkpt lat="50.44869" lon="6.88981"><ele>222</ele><time>2011-10-03T10:48:05Z</time></trkpt><trkpt lat="50.44873" lon="6.88985"><ele>222</ele><time>2011-10-03T10:48:07Z</time></trkpt><trkpt lat="50.44881" lon="6.88997"><ele>223</ele><time>2011-10-03T10:48:12Z</time></trkpt><trkpt lat="50.44892" lon="6.89012"><ele>224</ele><time>2011-10-03T10:48:18Z</time></trkpt><trkpt lat="50.44899" lon="6.89017"><ele>224</ele><time>2011-10-03T10:48:21Z</time></trkpt><trkpt lat="50.44904" lon="6.89020"><ele>225</ele><time>2011-10-03T10:48:23Z</time></trkpt><trkpt lat="50.44909" lon="6.89023"><ele>225</ele><time>2011-10-03T10:48:25Z</time></trkpt><trkpt lat="50.44911" lon="6.89023"><ele>225</ele><time>2011-10-03T10:48:26Z</time></trkpt><trkpt lat="50.44914" lon="6.89024"><ele>226</ele><time>2011-10-03T10:48:27Z</time></trkpt><trkpt lat="50.44927" lon="6.89022"><ele>227</ele><time>2011-10-03T10:48:32Z</time></trkpt><trkpt lat="50.44934" lon="6.89018"><ele>228</ele><time>2011-10-03T10:48:36Z</time></trkpt><trkpt lat="50.44941" lon="6.89014"><ele>228</ele><time>2011-10-03T10:48:39Z</time></trkpt><trkpt lat="50.44943" lon="6.89012"><ele>228</ele><time>2011-10-03T10:48:40Z</time></trkpt><trkpt lat="50.44946" lon="6.89005"><ele>229</ele><time>2011-10-03T10:48:43Z</time></trkpt><trkpt lat="50.44945" lon="6.88998"><ele>229</ele><time>2011-10-03T10:48:45Z</time></trkpt><trkpt lat="50.44944" lon="6.88994"><ele>229</ele><time>2011-10-03T10:48:46Z</time></trkpt><trkpt lat="50.44942" lon="6.88988"><ele>229</ele><time>2011-10-03T10:48:48Z</time></trkpt><trkpt lat="50.44938" lon="6.88980"><ele>230</ele><time>2011-10-03T10:48:51Z</time></trkpt><trkpt lat="50.44932" lon="6.88974"><ele>230</ele><time>2011-10-03T10:48:55Z</time></trkpt><trkpt lat="50.44927" lon="6.88966"><ele>230</ele><time>2011-10-03T10:48:59Z</time></trkpt><trkpt lat="50.44919" lon="6.88957"><ele>231</ele><time>2011-10-03T10:49:05Z</time></trkpt><trkpt lat="50.44914" lon="6.88952"><ele>231</ele><time>2011-10-03T10:49:08Z</time></trkpt><trkpt lat="50.44908" lon="6.88948"><ele>231</ele><time>2011-10-03T10:49:11Z</time></trkpt><trkpt lat="50.44903" lon="6.88945"><ele>231</ele><time>2011-10-03T10:49:14Z</time></trkpt><trkpt lat="50.44892" lon="6.88935"><ele>231</ele><time>2011-10-03T10:49:22Z</time></trkpt><trkpt lat="50.44878" lon="6.88927"><ele>231</ele><time>2011-10-03T10:49:31Z</time></trkpt><trkpt lat="50.44867" lon="6.88913"><ele>230</ele><time>2011-10-03T10:49:40Z</time></trkpt><trkpt lat="50.44865" lon="6.88912"><ele>230</ele><time>2011-10-03T10:49:41Z</time></trkpt><trkpt lat="50.44851" lon="6.88902"><ele>229</ele><time>2011-10-03T10:49:49Z</time></trkpt><trkpt lat="50.44847" lon="6.88900"><ele>229</ele><time>2011-10-03T10:49:51Z</time></trkpt><trkpt lat="50.44841" lon="6.88898"><ele>229</ele><time>2011-10-03T10:49:53Z</time></trkpt><trkpt lat="50.44827" lon="6.88894"><ele>229</ele><time>2011-10-03T10:49:58Z</time></trkpt><trkpt lat="50.44803" lon="6.88891"><ele>228</ele><time>2011-10-03T10:50:08Z</time></trkpt><trkpt lat="50.44796" lon="6.88892"><ele>228</ele><time>2011-10-03T10:50:11Z</time></trkpt><trkpt lat="50.44767" lon="6.88901"><ele>229</ele><time>2011-10-03T10:50:23Z</time></trkpt><trkpt lat="50.44758" lon="6.88902"><ele>229</ele><time>2011-10-03T10:50:27Z</time></trkpt><trkpt lat="50.44752" lon="6.88901"><ele>229</ele><time>2011-10-03T10:50:30Z</time></trkpt><trkpt lat="50.44732" lon="6.88899"><ele>232</ele><time>2011-10-03T10:50:43Z</time></trkpt><trkpt lat="50.44716" lon="6.88895"><ele>233</ele><time>2011-10-03T10:50:52Z</time></trkpt><trkpt lat="50.44713" lon="6.88892"><ele>234</ele><time>2011-10-03T10:50:54Z</time></trkpt><trkpt lat="50.44701" lon="6.88878"><ele>235</ele><time>2011-10-03T10:51:01Z</time></trkpt><trkpt lat="50.44697" lon="6.88869"><ele>235</ele><time>2011-10-03T10:51:04Z</time></trkpt><trkpt lat="50.44693" lon="6.88863"><ele>235</ele><time>2011-10-03T10:51:06Z</time></trkpt><trkpt lat="50.44690" lon="6.88854"><ele>235</ele><time>2011-10-03T10:51:08Z</time></trkpt><trkpt lat="50.44688" lon="6.88851"><ele>236</ele><time>2011-10-03T10:51:09Z</time></trkpt><trkpt lat="50.44679" lon="6.88838"><ele>236</ele><time>2011-10-03T10:51:13Z</time></trkpt><trkpt lat="50.44675" lon="6.88833"><ele>236</ele><time>2011-10-03T10:51:15Z</time></trkpt><trkpt lat="50.44670" lon="6.88828"><ele>236</ele><time>2011-10-03T10:51:18Z</time></trkpt><trkpt lat="50.44665" lon="6.88827"><ele>236</ele><time>2011-10-03T10:51:20Z</time></trkpt><trkpt lat="50.44654" lon="6.88828"><ele>236</ele><time>2011-10-03T10:51:23Z</time></trkpt><trkpt lat="50.44633" lon="6.88827"><ele>236</ele><time>2011-10-03T10:51:28Z</time></trkpt><trkpt lat="50.44624" lon="6.88825"><ele>236</ele><time>2011-10-03T10:51:30Z</time></trkpt><trkpt lat="50.44612" lon="6.88819"><ele>237</ele><time>2011-10-03T10:51:33Z</time></trkpt><trkpt lat="50.44609" lon="6.88815"><ele>237</ele><time>2011-10-03T10:51:34Z</time></trkpt><trkpt lat="50.44606" lon="6.88811"><ele>237</ele><time>2011-10-03T10:51:35Z</time></trkpt><trkpt lat="50.44604" lon="6.88807"><ele>237</ele><time>2011-10-03T10:51:36Z</time></trkpt><trkpt lat="50.44601" lon="6.88797"><ele>237</ele><time>2011-10-03T10:51:38Z</time></trkpt><trkpt lat="50.44599" lon="6.88791"><ele>237</ele><time>2011-10-03T10:51:39Z</time></trkpt><trkpt lat="50.44598" lon="6.88786"><ele>237</ele><time>2011-10-03T10:51:40Z</time></trkpt><trkpt lat="50.44594" lon="6.88769"><ele>237</ele><time>2011-10-03T10:51:43Z</time></trkpt><trkpt lat="50.44593" lon="6.88764"><ele>237</ele><time>2011-10-03T10:51:44Z</time></trkpt><trkpt lat="50.44592" lon="6.88758"><ele>237</ele><time>2011-10-03T10:51:45Z</time></trkpt><trkpt lat="50.44591" lon="6.88752"><ele>237</ele><time>2011-10-03T10:51:46Z</time></trkpt><trkpt lat="50.44586" lon="6.88730"><ele>237</ele><time>2011-10-03T10:51:50Z</time></trkpt><trkpt lat="50.44558" lon="6.88610"><ele>239</ele><time>2011-10-03T10:52:06Z</time></trkpt><trkpt lat="50.44551" lon="6.88569"><ele>240</ele><time>2011-10-03T10:52:12Z</time></trkpt><trkpt lat="50.44551" lon="6.88562"><ele>240</ele><time>2011-10-03T10:52:13Z</time></trkpt><trkpt lat="50.44551" lon="6.88544"><ele>240</ele><time>2011-10-03T10:52:16Z</time></trkpt><trkpt lat="50.44552" lon="6.88538"><ele>240</ele><time>2011-10-03T10:52:17Z</time></trkpt><trkpt lat="50.44552" lon="6.88532"><ele>240</ele><time>2011-10-03T10:52:18Z</time></trkpt><trkpt lat="50.44555" lon="6.88516"><ele>240</ele><time>2011-10-03T10:52:21Z</time></trkpt><trkpt lat="50.44556" lon="6.88510"><ele>240</ele><time>2011-10-03T10:52:22Z</time></trkpt><trkpt lat="50.44560" lon="6.88494"><ele>239</ele><time>2011-10-03T10:52:25Z</time></trkpt><trkpt lat="50.44561" lon="6.88488"><ele>239</ele><time>2011-10-03T10:52:26Z</time></trkpt><trkpt lat="50.44566" lon="6.88473"><ele>238</ele><time>2011-10-03T10:52:29Z</time></trkpt><trkpt lat="50.44572" lon="6.88458"><ele>238</ele><time>2011-10-03T10:52:32Z</time></trkpt><trkpt lat="50.44585" lon="6.88428"><ele>238</ele><time>2011-10-03T10:52:38Z</time></trkpt><trkpt lat="50.44588" lon="6.88423"><ele>238</ele><time>2011-10-03T10:52:39Z</time></trkpt><trkpt lat="50.44604" lon="6.88391"><ele>237</ele><time>2011-10-03T10:52:47Z</time></trkpt><trkpt lat="50.44605" lon="6.88387"><ele>237</ele><time>2011-10-03T10:52:48Z</time></trkpt><trkpt lat="50.44607" lon="6.88378"><ele>238</ele><time>2011-10-03T10:52:50Z</time></trkpt><trkpt lat="50.44611" lon="6.88369"><ele>238</ele><time>2011-10-03T10:52:52Z</time></trkpt><trkpt lat="50.44615" lon="6.88361"><ele>238</ele><time>2011-10-03T10:52:54Z</time></trkpt><trkpt lat="50.44617" lon="6.88356"><ele>238</ele><time>2011-10-03T10:52:55Z</time></trkpt><trkpt lat="50.44619" lon="6.88351"><ele>238</ele><time>2011-10-03T10:52:56Z</time></trkpt><trkpt lat="50.44621" lon="6.88345"><ele>238</ele><time>2011-10-03T10:52:57Z</time></trkpt><trkpt lat="50.44631" lon="6.88310"><ele>239</ele><time>2011-10-03T10:53:04Z</time></trkpt><trkpt lat="50.44639" lon="6.88287"><ele>239</ele><time>2011-10-03T10:53:10Z</time></trkpt><trkpt lat="50.44643" lon="6.88280"><ele>239</ele><time>2011-10-03T10:53:12Z</time></trkpt><trkpt lat="50.44644" lon="6.88276"><ele>239</ele><time>2011-10-03T10:53:13Z</time></trkpt><trkpt lat="50.44646" lon="6.88272"><ele>239</ele><time>2011-10-03T10:53:14Z</time></trkpt><trkpt lat="50.44651" lon="6.88265"><ele>238</ele><time>2011-10-03T10:53:16Z</time></trkpt><trkpt lat="50.44658" lon="6.88256"><ele>238</ele><time>2011-10-03T10:53:19Z</time></trkpt><trkpt lat="50.44663" lon="6.88246"><ele>238</ele><time>2011-10-03T10:53:22Z</time></trkpt><trkpt lat="50.44667" lon="6.88238"><ele>238</ele><time>2011-10-03T10:53:24Z</time></trkpt><trkpt lat="50.44689" lon="6.88173"><ele>236</ele><time>2011-10-03T10:53:37Z</time></trkpt><trkpt lat="50.44691" lon="6.88168"><ele>236</ele><time>2011-10-03T10:53:38Z</time></trkpt><trkpt lat="50.44701" lon="6.88134"><ele>235</ele><time>2011-10-03T10:53:44Z</time></trkpt><trkpt lat="50.44703" lon="6.88129"><ele>235</ele><time>2011-10-03T10:53:45Z</time></trkpt><trkpt lat="50.44713" lon="6.88098"><ele>234</ele><time>2011-10-03T10:53:51Z</time></trkpt><trkpt lat="50.44718" lon="6.88083"><ele>234</ele><time>2011-10-03T10:53:54Z</time></trkpt><trkpt lat="50.44723" lon="6.88059"><ele>234</ele><time>2011-10-03T10:53:59Z</time></trkpt><trkpt lat="50.44728" lon="6.88034"><ele>233</ele><time>2011-10-03T10:54:04Z</time></trkpt><trkpt lat="50.44729" lon="6.88029"><ele>233</ele><time>2011-10-03T10:54:05Z</time></trkpt><trkpt lat="50.44746" lon="6.87920"><ele>230</ele><time>2011-10-03T10:54:26Z</time></trkpt><trkpt lat="50.44747" lon="6.87898"><ele>230</ele><time>2011-10-03T10:54:30Z</time></trkpt><trkpt lat="50.44749" lon="6.87875"><ele>230</ele><time>2011-10-03T10:54:34Z</time></trkpt><trkpt lat="50.44749" lon="6.87869"><ele>230</ele><time>2011-10-03T10:54:35Z</time></trkpt><trkpt lat="50.44749" lon="6.87863"><ele>229</ele><time>2011-10-03T10:54:36Z</time></trkpt><trkpt lat="50.44749" lon="6.87857"><ele>229</ele><time>2011-10-03T10:54:37Z</time></trkpt><trkpt lat="50.44748" lon="6.87804"><ele>229</ele><time>2011-10-03T10:54:45Z</time></trkpt><trkpt lat="50.44747" lon="6.87791"><ele>229</ele><time>2011-10-03T10:54:47Z</time></trkpt><trkpt lat="50.44740" lon="6.87730"><ele>229</ele><time>2011-10-03T10:54:57Z</time></trkpt><trkpt lat="50.44739" lon="6.87723"><ele>229</ele><time>2011-10-03T10:54:58Z</time></trkpt><trkpt lat="50.44730" lon="6.87680"><ele>230</ele><time>2011-10-03T10:55:04Z</time></trkpt><trkpt lat="50.44727" lon="6.87666"><ele>231</ele><time>2011-10-03T10:55:06Z</time></trkpt><trkpt lat="50.44716" lon="6.87623"><ele>232</ele><time>2011-10-03T10:55:14Z</time></trkpt><trkpt lat="50.44715" lon="6.87618"><ele>232</ele><time>2011-10-03T10:55:15Z</time></trkpt><trkpt lat="50.44715" lon="6.87598"><ele>232</ele><time>2011-10-03T10:55:19Z</time></trkpt><trkpt lat="50.44717" lon="6.87588"><ele>232</ele><time>2011-10-03T10:55:21Z</time></trkpt><trkpt lat="50.44718" lon="6.87584"><ele>233</ele><time>2011-10-03T10:55:22Z</time></trkpt><trkpt lat="50.44721" lon="6.87574"><ele>233</ele><time>2011-10-03T10:55:24Z</time></trkpt><trkpt lat="50.44723" lon="6.87564"><ele>233</ele><time>2011-10-03T10:55:26Z</time></trkpt><trkpt lat="50.44729" lon="6.87550"><ele>233</ele><time>2011-10-03T10:55:29Z</time></trkpt><trkpt lat="50.44733" lon="6.87543"><ele>233</ele><time>2011-10-03T10:55:31Z</time></trkpt><trkpt lat="50.44746" lon="6.87520"><ele>234</ele><time>2011-10-03T10:55:37Z</time></trkpt><trkpt lat="50.44762" lon="6.87484"><ele>234</ele><time>2011-10-03T10:55:46Z</time></trkpt><trkpt lat="50.44765" lon="6.87474"><ele>234</ele><time>2011-10-03T10:55:48Z</time></trkpt><trkpt lat="50.44768" lon="6.87462"><ele>234</ele><time>2011-10-03T10:55:50Z</time></trkpt><trkpt lat="50.44778" lon="6.87427"><ele>235</ele><time>2011-10-03T10:55:57Z</time></trkpt><trkpt lat="50.44785" lon="6.87416"><ele>235</ele><time>2011-10-03T10:56:01Z</time></trkpt><trkpt lat="50.44788" lon="6.87405"><ele>236</ele><time>2011-10-03T10:56:06Z</time></trkpt><trkpt lat="50.44797" lon="6.87395"><ele>235</ele><time>2011-10-03T10:56:11Z</time></trkpt><trkpt lat="50.44835" lon="6.87350"><ele>235</ele><time>2011-10-03T10:56:27Z</time></trkpt><trkpt lat="50.44842" lon="6.87338"><ele>235</ele><time>2011-10-03T10:56:31Z</time></trkpt><trkpt lat="50.44854" lon="6.87328"><ele>235</ele><time>2011-10-03T10:56:36Z</time></trkpt><trkpt lat="50.44863" lon="6.87314"><ele>235</ele><time>2011-10-03T10:56:41Z</time></trkpt><trkpt lat="50.44882" lon="6.87293"><ele>235</ele><time>2011-10-03T10:56:50Z</time></trkpt><trkpt lat="50.44908" lon="6.87254"><ele>237</ele><time>2011-10-03T10:57:01Z</time></trkpt><trkpt lat="50.44919" lon="6.87236"><ele>237</ele><time>2011-10-03T10:57:05Z</time></trkpt><trkpt lat="50.44947" lon="6.87191"><ele>240</ele><time>2011-10-03T10:57:19Z</time></trkpt><trkpt lat="50.44960" lon="6.87182"><ele>240</ele><time>2011-10-03T10:57:25Z</time></trkpt><trkpt lat="50.44976" lon="6.87174"><ele>240</ele><time>2011-10-03T10:57:31Z</time></trkpt><trkpt lat="50.44985" lon="6.87159"><ele>240</ele><time>2011-10-03T10:57:34Z</time></trkpt><trkpt lat="50.44988" lon="6.87151"><ele>240</ele><time>2011-10-03T10:57:35Z</time></trkpt><trkpt lat="50.44991" lon="6.87136"><ele>240</ele><time>2011-10-03T10:57:37Z</time></trkpt><trkpt lat="50.44999" lon="6.87110"><ele>239</ele><time>2011-10-03T10:57:42Z</time></trkpt><trkpt lat="50.45010" lon="6.87082"><ele>239</ele><time>2011-10-03T10:57:49Z</time></trkpt><trkpt lat="50.45022" lon="6.87056"><ele>238</ele><time>2011-10-03T10:57:55Z</time></trkpt><trkpt lat="50.45026" lon="6.87049"><ele>238</ele><time>2011-10-03T10:57:57Z</time></trkpt><trkpt lat="50.45032" lon="6.87028"><ele>238</ele><time>2011-10-03T10:58:02Z</time></trkpt><trkpt lat="50.45045" lon="6.87011"><ele>237</ele><time>2011-10-03T10:58:07Z</time></trkpt><trkpt lat="50.45056" lon="6.86991"><ele>238</ele><time>2011-10-03T10:58:12Z</time></trkpt><trkpt lat="50.45067" lon="6.86975"><ele>238</ele><time>2011-10-03T10:58:17Z</time></trkpt><trkpt lat="50.45081" lon="6.86964"><ele>239</ele><time>2011-10-03T10:58:21Z</time></trkpt><trkpt lat="50.45093" lon="6.86949"><ele>240</ele><time>2011-10-03T10:58:25Z</time></trkpt><trkpt lat="50.45096" lon="6.86937"><ele>240</ele><time>2011-10-03T10:58:27Z</time></trkpt><trkpt lat="50.45101" lon="6.86926"><ele>241</ele><time>2011-10-03T10:58:29Z</time></trkpt><trkpt lat="50.45106" lon="6.86911"><ele>241</ele><time>2011-10-03T10:58:32Z</time></trkpt><trkpt lat="50.45127" lon="6.86850"><ele>243</ele><time>2011-10-03T10:58:46Z</time></trkpt><trkpt lat="50.45131" lon="6.86843"><ele>243</ele><time>2011-10-03T10:58:48Z</time></trkpt><trkpt lat="50.45146" lon="6.86826"><ele>243</ele><time>2011-10-03T10:58:54Z</time></trkpt><trkpt lat="50.45149" lon="6.86823"><ele>244</ele><time>2011-10-03T10:58:55Z</time></trkpt><trkpt lat="50.45172" lon="6.86801"><ele>245</ele><time>2011-10-03T10:59:03Z</time></trkpt><trkpt lat="50.45179" lon="6.86797"><ele>246</ele><time>2011-10-03T10:59:05Z</time></trkpt><trkpt lat="50.45207" lon="6.86776"><ele>247</ele><time>2011-10-03T10:59:16Z</time></trkpt><trkpt lat="50.45210" lon="6.86770"><ele>247</ele><time>2011-10-03T10:59:19Z</time></trkpt><trkpt lat="50.45217" lon="6.86768"><ele>247</ele><time>2011-10-03T10:59:22Z</time></trkpt><trkpt lat="50.45232" lon="6.86766"><ele>248</ele><time>2011-10-03T10:59:27Z</time></trkpt><trkpt lat="50.45239" lon="6.86766"><ele>248</ele><time>2011-10-03T10:59:29Z</time></trkpt><trkpt lat="50.45255" lon="6.86765"><ele>249</ele><time>2011-10-03T10:59:35Z</time></trkpt><trkpt lat="50.45265" lon="6.86770"><ele>248</ele><time>2011-10-03T10:59:38Z</time></trkpt><trkpt lat="50.45271" lon="6.86775"><ele>248</ele><time>2011-10-03T10:59:40Z</time></trkpt><trkpt lat="50.45294" lon="6.86793"><ele>246</ele><time>2011-10-03T10:59:49Z</time></trkpt><trkpt lat="50.45315" lon="6.86804"><ele>245</ele><time>2011-10-03T10:59:56Z</time></trkpt><trkpt lat="50.45320" lon="6.86805"><ele>245</ele><time>2011-10-03T10:59:57Z</time></trkpt><trkpt lat="50.45346" lon="6.86812"><ele>246</ele><time>2011-10-03T11:00:02Z</time></trkpt><trkpt lat="50.45361" lon="6.86820"><ele>246</ele><time>2011-10-03T11:00:06Z</time></trkpt><trkpt lat="50.45405" lon="6.86845"><ele>248</ele><time>2011-10-03T11:00:20Z</time></trkpt><trkpt lat="50.45421" lon="6.86851"><ele>249</ele><time>2011-10-03T11:00:24Z</time></trkpt><trkpt lat="50.45454" lon="6.86865"><ele>251</ele><time>2011-10-03T11:00:32Z</time></trkpt><trkpt lat="50.45473" lon="6.86869"><ele>252</ele><time>2011-10-03T11:00:37Z</time></trkpt><trkpt lat="50.45479" lon="6.86870"><ele>253</ele><time>2011-10-03T11:00:39Z</time></trkpt><trkpt lat="50.45496" lon="6.86870"><ele>255</ele><time>2011-10-03T11:00:44Z</time></trkpt><trkpt lat="50.45534" lon="6.86869"><ele>257</ele><time>2011-10-03T11:00:58Z</time></trkpt><trkpt lat="50.45541" lon="6.86866"><ele>257</ele><time>2011-10-03T11:01:01Z</time></trkpt><trkpt lat="50.45558" lon="6.86860"><ele>257</ele><time>2011-10-03T11:01:09Z</time></trkpt><trkpt lat="50.45594" lon="6.86849"><ele>257</ele><time>2011-10-03T11:01:22Z</time></trkpt><trkpt lat="50.45599" lon="6.86845"><ele>257</ele><time>2011-10-03T11:01:24Z</time></trkpt><trkpt lat="50.45605" lon="6.86842"><ele>257</ele><time>2011-10-03T11:01:26Z</time></trkpt><trkpt lat="50.45620" lon="6.86839"><ele>257</ele><time>2011-10-03T11:01:30Z</time></trkpt><trkpt lat="50.45631" lon="6.86838"><ele>257</ele><time>2011-10-03T11:01:33Z</time></trkpt><trkpt lat="50.45637" lon="6.86834"><ele>257</ele><time>2011-10-03T11:01:35Z</time></trkpt><trkpt lat="50.45643" lon="6.86831"><ele>257</ele><time>2011-10-03T11:01:37Z</time></trkpt><trkpt lat="50.45680" lon="6.86804"><ele>256</ele><time>2011-10-03T11:01:49Z</time></trkpt><trkpt lat="50.45694" lon="6.86790"><ele>256</ele><time>2011-10-03T11:01:54Z</time></trkpt><trkpt lat="50.45697" lon="6.86781"><ele>256</ele><time>2011-10-03T11:01:56Z</time></trkpt><trkpt lat="50.45704" lon="6.86764"><ele>256</ele><time>2011-10-03T11:02:00Z</time></trkpt><trkpt lat="50.45735" lon="6.86699"><ele>257</ele><time>2011-10-03T11:02:14Z</time></trkpt><trkpt lat="50.45739" lon="6.86693"><ele>258</ele><time>2011-10-03T11:02:16Z</time></trkpt><trkpt lat="50.45741" lon="6.86690"><ele>258</ele><time>2011-10-03T11:02:17Z</time></trkpt><trkpt lat="50.45746" lon="6.86682"><ele>258</ele><time>2011-10-03T11:02:20Z</time></trkpt><trkpt lat="50.45758" lon="6.86662"><ele>258</ele><time>2011-10-03T11:02:29Z</time></trkpt><trkpt lat="50.45762" lon="6.86651"><ele>257</ele><time>2011-10-03T11:02:32Z</time></trkpt><trkpt lat="50.45765" lon="6.86637"><ele>257</ele><time>2011-10-03T11:02:35Z</time></trkpt><trkpt lat="50.45769" lon="6.86606"><ele>256</ele><time>2011-10-03T11:02:41Z</time></trkpt><trkpt lat="50.45773" lon="6.86572"><ele>255</ele><time>2011-10-03T11:02:46Z</time></trkpt><trkpt lat="50.45776" lon="6.86523"><ele>256</ele><time>2011-10-03T11:02:53Z</time></trkpt><trkpt lat="50.45776" lon="6.86515"><ele>256</ele><time>2011-10-03T11:02:54Z</time></trkpt><trkpt lat="50.45776" lon="6.86507"><ele>256</ele><time>2011-10-03T11:02:55Z</time></trkpt><trkpt lat="50.45776" lon="6.86474"><ele>257</ele><time>2011-10-03T11:03:00Z</time></trkpt><trkpt lat="50.45776" lon="6.86469"><ele>258</ele><time>2011-10-03T11:03:01Z</time></trkpt><trkpt lat="50.45778" lon="6.86457"><ele>258</ele><time>2011-10-03T11:03:03Z</time></trkpt><trkpt lat="50.45782" lon="6.86430"><ele>259</ele><time>2011-10-03T11:03:08Z</time></trkpt><trkpt lat="50.45784" lon="6.86414"><ele>259</ele><time>2011-10-03T11:03:11Z</time></trkpt><trkpt lat="50.45785" lon="6.86403"><ele>259</ele><time>2011-10-03T11:03:13Z</time></trkpt><trkpt lat="50.45790" lon="6.86364"><ele>261</ele><time>2011-10-03T11:03:22Z</time></trkpt><trkpt lat="50.45792" lon="6.86347"><ele>261</ele><time>2011-10-03T11:03:25Z</time></trkpt><trkpt lat="50.45796" lon="6.86332"><ele>262</ele><time>2011-10-03T11:03:29Z</time></trkpt><trkpt lat="50.45804" lon="6.86303"><ele>262</ele><time>2011-10-03T11:03:36Z</time></trkpt><trkpt lat="50.45811" lon="6.86267"><ele>262</ele><time>2011-10-03T11:03:43Z</time></trkpt><trkpt lat="50.45814" lon="6.86250"><ele>261</ele><time>2011-10-03T11:03:46Z</time></trkpt><trkpt lat="50.45816" lon="6.86228"><ele>262</ele><time>2011-10-03T11:03:49Z</time></trkpt><trkpt lat="50.45824" lon="6.86206"><ele>262</ele><time>2011-10-03T11:03:53Z</time></trkpt><trkpt lat="50.45835" lon="6.86186"><ele>264</ele><time>2011-10-03T11:03:58Z</time></trkpt><trkpt lat="50.45849" lon="6.86162"><ele>266</ele><time>2011-10-03T11:04:03Z</time></trkpt><trkpt lat="50.45852" lon="6.86136"><ele>268</ele><time>2011-10-03T11:04:07Z</time></trkpt><trkpt lat="50.45853" lon="6.86131"><ele>269</ele><time>2011-10-03T11:04:08Z</time></trkpt><trkpt lat="50.45856" lon="6.86123"><ele>270</ele><time>2011-10-03T11:04:11Z</time></trkpt><trkpt lat="50.45862" lon="6.86117"><ele>271</ele><time>2011-10-03T11:04:14Z</time></trkpt><trkpt lat="50.45912" lon="6.86066"><ele>277</ele><time>2011-10-03T11:04:34Z</time></trkpt><trkpt lat="50.45917" lon="6.86063"><ele>277</ele><time>2011-10-03T11:04:36Z</time></trkpt><trkpt lat="50.45936" lon="6.86051"><ele>278</ele><time>2011-10-03T11:04:42Z</time></trkpt><trkpt lat="50.45943" lon="6.86047"><ele>278</ele><time>2011-10-03T11:04:44Z</time></trkpt><trkpt lat="50.45963" lon="6.86035"><ele>279</ele><time>2011-10-03T11:04:50Z</time></trkpt><trkpt lat="50.45967" lon="6.86030"><ele>279</ele><time>2011-10-03T11:04:52Z</time></trkpt><trkpt lat="50.45975" lon="6.86024"><ele>279</ele><time>2011-10-03T11:04:56Z</time></trkpt><trkpt lat="50.45978" lon="6.86024"><ele>279</ele><time>2011-10-03T11:04:57Z</time></trkpt><trkpt lat="50.45986" lon="6.86022"><ele>279</ele><time>2011-10-03T11:05:00Z</time></trkpt><trkpt lat="50.45991" lon="6.86019"><ele>279</ele><time>2011-10-03T11:05:02Z</time></trkpt><trkpt lat="50.46011" lon="6.86012"><ele>278</ele><time>2011-10-03T11:05:10Z</time></trkpt><trkpt lat="50.46022" lon="6.86005"><ele>277</ele><time>2011-10-03T11:05:16Z</time></trkpt><trkpt lat="50.46036" lon="6.86000"><ele>275</ele><time>2011-10-03T11:05:25Z</time></trkpt><trkpt lat="50.46043" lon="6.85999"><ele>273</ele><time>2011-10-03T11:05:29Z</time></trkpt><trkpt lat="50.46059" lon="6.85999"><ele>271</ele><time>2011-10-03T11:05:36Z</time></trkpt><trkpt lat="50.46062" lon="6.85999"><ele>271</ele><time>2011-10-03T11:05:37Z</time></trkpt><trkpt lat="50.46068" lon="6.86001"><ele>270</ele><time>2011-10-03T11:05:39Z</time></trkpt><trkpt lat="50.46078" lon="6.86002"><ele>269</ele><time>2011-10-03T11:05:42Z</time></trkpt><trkpt lat="50.46084" lon="6.86001"><ele>269</ele><time>2011-10-03T11:05:44Z</time></trkpt><trkpt lat="50.46106" lon="6.86002"><ele>268</ele><time>2011-10-03T11:05:51Z</time></trkpt><trkpt lat="50.46113" lon="6.86003"><ele>268</ele><time>2011-10-03T11:05:54Z</time></trkpt><trkpt lat="50.46122" lon="6.86009"><ele>268</ele><time>2011-10-03T11:05:58Z</time></trkpt><trkpt lat="50.46125" lon="6.86011"><ele>268</ele><time>2011-10-03T11:06:00Z</time></trkpt><trkpt lat="50.46134" lon="6.86015"><ele>267</ele><time>2011-10-03T11:06:13Z</time></trkpt><trkpt lat="50.46139" lon="6.86013"><ele>268</ele><time>2011-10-03T11:06:26Z</time></trkpt><trkpt lat="50.46143" lon="6.86009"><ele>268</ele><time>2011-10-03T11:06:31Z</time></trkpt><trkpt lat="50.46148" lon="6.86007"><ele>268</ele><time>2011-10-03T11:06:37Z</time></trkpt><trkpt lat="50.46143" lon="6.86011"><ele>269</ele><time>2011-10-03T11:06:50Z</time></trkpt><trkpt lat="50.46143" lon="6.86011"><ele>269</ele><time>2011-10-03T11:06:50Z</time></trkpt><trkpt lat="50.46148" lon="6.86013"><ele>270</ele><time>2011-10-03T11:07:15Z</time></trkpt><trkpt lat="50.46142" lon="6.86012"><ele>276</ele><time>2011-10-03T11:11:09Z</time></trkpt><trkpt lat="50.46142" lon="6.86012"><ele>276</ele><time>2011-10-03T11:11:09Z</time></trkpt><trkpt lat="50.46143" lon="6.86020"><ele>277</ele><time>2011-10-03T11:11:23Z</time></trkpt><trkpt lat="50.46146" lon="6.86025"><ele>277</ele><time>2011-10-03T11:11:27Z</time></trkpt><trkpt lat="50.46156" lon="6.86040"><ele>277</ele><time>2011-10-03T11:11:34Z</time></trkpt><trkpt lat="50.46157" lon="6.86043"><ele>277</ele><time>2011-10-03T11:11:35Z</time></trkpt><trkpt lat="50.46161" lon="6.86049"><ele>277</ele><time>2011-10-03T11:11:38Z</time></trkpt><trkpt lat="50.46163" lon="6.86051"><ele>277</ele><time>2011-10-03T11:11:39Z</time></trkpt><trkpt lat="50.46168" lon="6.86056"><ele>277</ele><time>2011-10-03T11:11:42Z</time></trkpt><trkpt lat="50.46184" lon="6.86073"><ele>277</ele><time>2011-10-03T11:11:51Z</time></trkpt><trkpt lat="50.46190" lon="6.86084"><ele>277</ele><time>2011-10-03T11:11:55Z</time></trkpt><trkpt lat="50.46192" lon="6.86092"><ele>277</ele><time>2011-10-03T11:11:57Z</time></trkpt><trkpt lat="50.46196" lon="6.86104"><ele>277</ele><time>2011-10-03T11:12:00Z</time></trkpt><trkpt lat="50.46199" lon="6.86111"><ele>277</ele><time>2011-10-03T11:12:02Z</time></trkpt><trkpt lat="50.46223" lon="6.86171"><ele>277</ele><time>2011-10-03T11:12:18Z</time></trkpt><trkpt lat="50.46227" lon="6.86177"><ele>277</ele><time>2011-10-03T11:12:20Z</time></trkpt><trkpt lat="50.46236" lon="6.86192"><ele>277</ele><time>2011-10-03T11:12:25Z</time></trkpt><trkpt lat="50.46240" lon="6.86197"><ele>277</ele><time>2011-10-03T11:12:27Z</time></trkpt><trkpt lat="50.46272" lon="6.86233"><ele>277</ele><time>2011-10-03T11:12:42Z</time></trkpt><trkpt lat="50.46278" lon="6.86239"><ele>276</ele><time>2011-10-03T11:12:45Z</time></trkpt><trkpt lat="50.46296" lon="6.86253"><ele>276</ele><time>2011-10-03T11:12:55Z</time></trkpt><trkpt lat="50.46297" lon="6.86254"><ele>276</ele><time>2011-10-03T11:12:56Z</time></trkpt><trkpt lat="50.46309" lon="6.86255"><ele>275</ele><time>2011-10-03T11:13:02Z</time></trkpt><trkpt lat="50.46316" lon="6.86254"><ele>275</ele><time>2011-10-03T11:13:05Z</time></trkpt><trkpt lat="50.46337" lon="6.86252"><ele>274</ele><time>2011-10-03T11:13:14Z</time></trkpt><trkpt lat="50.46343" lon="6.86251"><ele>274</ele><time>2011-10-03T11:13:16Z</time></trkpt><trkpt lat="50.46403" lon="6.86237"><ele>272</ele><time>2011-10-03T11:13:32Z</time></trkpt><trkpt lat="50.46415" lon="6.86238"><ele>272</ele><time>2011-10-03T11:13:35Z</time></trkpt><trkpt lat="50.46434" lon="6.86241"><ele>271</ele><time>2011-10-03T11:13:42Z</time></trkpt><trkpt lat="50.46439" lon="6.86242"><ele>271</ele><time>2011-10-03T11:13:44Z</time></trkpt><trkpt lat="50.46445" lon="6.86244"><ele>271</ele><time>2011-10-03T11:13:46Z</time></trkpt><trkpt lat="50.46513" lon="6.86275"><ele>271</ele><time>2011-10-03T11:14:07Z</time></trkpt><trkpt lat="50.46517" lon="6.86277"><ele>270</ele><time>2011-10-03T11:14:08Z</time></trkpt><trkpt lat="50.46537" lon="6.86287"><ele>270</ele><time>2011-10-03T11:14:14Z</time></trkpt><trkpt lat="50.46539" lon="6.86290"><ele>271</ele><time>2011-10-03T11:14:15Z</time></trkpt><trkpt lat="50.46542" lon="6.86292"><ele>271</ele><time>2011-10-03T11:14:16Z</time></trkpt><trkpt lat="50.46553" lon="6.86306"><ele>271</ele><time>2011-10-03T11:14:21Z</time></trkpt><trkpt lat="50.46559" lon="6.86315"><ele>271</ele><time>2011-10-03T11:14:24Z</time></trkpt><trkpt lat="50.46574" lon="6.86337"><ele>271</ele><time>2011-10-03T11:14:31Z</time></trkpt><trkpt lat="50.46578" lon="6.86344"><ele>272</ele><time>2011-10-03T11:14:33Z</time></trkpt><trkpt lat="50.46602" lon="6.86390"><ele>272</ele><time>2011-10-03T11:14:47Z</time></trkpt><trkpt lat="50.46605" lon="6.86397"><ele>272</ele><time>2011-10-03T11:14:49Z</time></trkpt><trkpt lat="50.46616" lon="6.86421"><ele>272</ele><time>2011-10-03T11:14:56Z</time></trkpt><trkpt lat="50.46618" lon="6.86428"><ele>272</ele><time>2011-10-03T11:14:58Z</time></trkpt><trkpt lat="50.46621" lon="6.86435"><ele>272</ele><time>2011-10-03T11:15:00Z</time></trkpt><trkpt lat="50.46661" lon="6.86527"><ele>274</ele><time>2011-10-03T11:15:26Z</time></trkpt><trkpt lat="50.46679" lon="6.86568"><ele>276</ele><time>2011-10-03T11:15:36Z</time></trkpt><trkpt lat="50.46685" lon="6.86576"><ele>277</ele><time>2011-10-03T11:15:39Z</time></trkpt><trkpt lat="50.46699" lon="6.86592"><ele>278</ele><time>2011-10-03T11:15:47Z</time></trkpt><trkpt lat="50.46715" lon="6.86610"><ele>279</ele><time>2011-10-03T11:15:56Z</time></trkpt><trkpt lat="50.46723" lon="6.86619"><ele>279</ele><time>2011-10-03T11:16:00Z</time></trkpt><trkpt lat="50.46762" lon="6.86652"><ele>281</ele><time>2011-10-03T11:16:17Z</time></trkpt><trkpt lat="50.46773" lon="6.86661"><ele>282</ele><time>2011-10-03T11:16:22Z</time></trkpt><trkpt lat="50.46778" lon="6.86664"><ele>282</ele><time>2011-10-03T11:16:24Z</time></trkpt><trkpt lat="50.46783" lon="6.86667"><ele>282</ele><time>2011-10-03T11:16:26Z</time></trkpt><trkpt lat="50.46795" lon="6.86675"><ele>282</ele><time>2011-10-03T11:16:31Z</time></trkpt><trkpt lat="50.46811" lon="6.86682"><ele>282</ele><time>2011-10-03T11:16:37Z</time></trkpt><trkpt lat="50.46820" lon="6.86684"><ele>282</ele><time>2011-10-03T11:16:40Z</time></trkpt><trkpt lat="50.46823" lon="6.86684"><ele>282</ele><time>2011-10-03T11:16:41Z</time></trkpt><trkpt lat="50.46845" lon="6.86684"><ele>282</ele><time>2011-10-03T11:16:48Z</time></trkpt><trkpt lat="50.46853" lon="6.86684"><ele>282</ele><time>2011-10-03T11:16:51Z</time></trkpt><trkpt lat="50.46865" lon="6.86680"><ele>281</ele><time>2011-10-03T11:16:57Z</time></trkpt><trkpt lat="50.46878" lon="6.86672"><ele>280</ele><time>2011-10-03T11:17:02Z</time></trkpt><trkpt lat="50.46898" lon="6.86664"><ele>280</ele><time>2011-10-03T11:17:07Z</time></trkpt><trkpt lat="50.46915" lon="6.86659"><ele>280</ele><time>2011-10-03T11:17:11Z</time></trkpt><trkpt lat="50.46928" lon="6.86649"><ele>280</ele><time>2011-10-03T11:17:15Z</time></trkpt><trkpt lat="50.46948" lon="6.86630"><ele>280</ele><time>2011-10-03T11:17:22Z</time></trkpt><trkpt lat="50.46960" lon="6.86619"><ele>280</ele><time>2011-10-03T11:17:26Z</time></trkpt><trkpt lat="50.46966" lon="6.86610"><ele>281</ele><time>2011-10-03T11:17:28Z</time></trkpt><trkpt lat="50.46984" lon="6.86589"><ele>281</ele><time>2011-10-03T11:17:35Z</time></trkpt><trkpt lat="50.47009" lon="6.86557"><ele>281</ele><time>2011-10-03T11:17:46Z</time></trkpt><trkpt lat="50.47020" lon="6.86537"><ele>282</ele><time>2011-10-03T11:17:51Z</time></trkpt><trkpt lat="50.47023" lon="6.86534"><ele>282</ele><time>2011-10-03T11:17:52Z</time></trkpt><trkpt lat="50.47034" lon="6.86525"><ele>282</ele><time>2011-10-03T11:17:55Z</time></trkpt><trkpt lat="50.47052" lon="6.86508"><ele>282</ele><time>2011-10-03T11:18:02Z</time></trkpt><trkpt lat="50.47059" lon="6.86497"><ele>282</ele><time>2011-10-03T11:18:06Z</time></trkpt><trkpt lat="50.47063" lon="6.86484"><ele>282</ele><time>2011-10-03T11:18:10Z</time></trkpt><trkpt lat="50.47073" lon="6.86455"><ele>282</ele><time>2011-10-03T11:18:19Z</time></trkpt><trkpt lat="50.47090" lon="6.86414"><ele>282</ele><time>2011-10-03T11:18:30Z</time></trkpt><trkpt lat="50.47095" lon="6.86409"><ele>282</ele><time>2011-10-03T11:18:32Z</time></trkpt><trkpt lat="50.47108" lon="6.86397"><ele>282</ele><time>2011-10-03T11:18:38Z</time></trkpt><trkpt lat="50.47120" lon="6.86382"><ele>282</ele><time>2011-10-03T11:18:44Z</time></trkpt><trkpt lat="50.47126" lon="6.86361"><ele>282</ele><time>2011-10-03T11:18:49Z</time></trkpt><trkpt lat="50.47124" lon="6.86349"><ele>283</ele><time>2011-10-03T11:18:51Z</time></trkpt><trkpt lat="50.47124" lon="6.86326"><ele>283</ele><time>2011-10-03T11:18:57Z</time></trkpt><trkpt lat="50.47136" lon="6.86310"><ele>283</ele><time>2011-10-03T11:19:07Z</time></trkpt><trkpt lat="50.47146" lon="6.86306"><ele>283</ele><time>2011-10-03T11:19:12Z</time></trkpt><trkpt lat="50.47152" lon="6.86302"><ele>283</ele><time>2011-10-03T11:19:15Z</time></trkpt><trkpt lat="50.47168" lon="6.86296"><ele>284</ele><time>2011-10-03T11:19:19Z</time></trkpt><trkpt lat="50.47177" lon="6.86295"><ele>284</ele><time>2011-10-03T11:19:21Z</time></trkpt><trkpt lat="50.47184" lon="6.86296"><ele>284</ele><time>2011-10-03T11:19:23Z</time></trkpt><trkpt lat="50.47213" lon="6.86298"><ele>285</ele><time>2011-10-03T11:19:31Z</time></trkpt><trkpt lat="50.47218" lon="6.86297"><ele>286</ele><time>2011-10-03T11:19:32Z</time></trkpt><trkpt lat="50.47227" lon="6.86298"><ele>286</ele><time>2011-10-03T11:19:34Z</time></trkpt><trkpt lat="50.47234" lon="6.86300"><ele>287</ele><time>2011-10-03T11:19:36Z</time></trkpt><trkpt lat="50.47248" lon="6.86307"><ele>288</ele><time>2011-10-03T11:19:41Z</time></trkpt><trkpt lat="50.47253" lon="6.86309"><ele>288</ele><time>2011-10-03T11:19:43Z</time></trkpt><trkpt lat="50.47267" lon="6.86315"><ele>289</ele><time>2011-10-03T11:19:48Z</time></trkpt><trkpt lat="50.47270" lon="6.86317"><ele>290</ele><time>2011-10-03T11:19:49Z</time></trkpt><trkpt lat="50.47280" lon="6.86324"><ele>290</ele><time>2011-10-03T11:19:53Z</time></trkpt><trkpt lat="50.47283" lon="6.86326"><ele>290</ele><time>2011-10-03T11:19:54Z</time></trkpt><trkpt lat="50.47289" lon="6.86333"><ele>291</ele><time>2011-10-03T11:19:57Z</time></trkpt><trkpt lat="50.47291" lon="6.86335"><ele>291</ele><time>2011-10-03T11:19:58Z</time></trkpt><trkpt lat="50.47292" lon="6.86337"><ele>291</ele><time>2011-10-03T11:19:59Z</time></trkpt><trkpt lat="50.47304" lon="6.86353"><ele>292</ele><time>2011-10-03T11:20:06Z</time></trkpt><trkpt lat="50.47308" lon="6.86362"><ele>292</ele><time>2011-10-03T11:20:09Z</time></trkpt><trkpt lat="50.47321" lon="6.86390"><ele>293</ele><time>2011-10-03T11:20:18Z</time></trkpt><trkpt lat="50.47322" lon="6.86394"><ele>293</ele><time>2011-10-03T11:20:19Z</time></trkpt><trkpt lat="50.47324" lon="6.86398"><ele>293</ele><time>2011-10-03T11:20:20Z</time></trkpt><trkpt lat="50.47336" lon="6.86434"><ele>294</ele><time>2011-10-03T11:20:29Z</time></trkpt><trkpt lat="50.47339" lon="6.86440"><ele>294</ele><time>2011-10-03T11:20:31Z</time></trkpt><trkpt lat="50.47360" lon="6.86486"><ele>296</ele><time>2011-10-03T11:20:45Z</time></trkpt><trkpt lat="50.47361" lon="6.86491"><ele>296</ele><time>2011-10-03T11:20:46Z</time></trkpt><trkpt lat="50.47366" lon="6.86504"><ele>297</ele><time>2011-10-03T11:20:49Z</time></trkpt><trkpt lat="50.47368" lon="6.86508"><ele>297</ele><time>2011-10-03T11:20:50Z</time></trkpt><trkpt lat="50.47369" lon="6.86511"><ele>297</ele><time>2011-10-03T11:20:51Z</time></trkpt><trkpt lat="50.47373" lon="6.86517"><ele>297</ele><time>2011-10-03T11:20:53Z</time></trkpt><trkpt lat="50.47381" lon="6.86525"><ele>298</ele><time>2011-10-03T11:20:57Z</time></trkpt><trkpt lat="50.47387" lon="6.86532"><ele>298</ele><time>2011-10-03T11:21:00Z</time></trkpt><trkpt lat="50.47400" lon="6.86542"><ele>298</ele><time>2011-10-03T11:21:06Z</time></trkpt><trkpt lat="50.47405" lon="6.86543"><ele>298</ele><time>2011-10-03T11:21:08Z</time></trkpt><trkpt lat="50.47412" lon="6.86546"><ele>298</ele><time>2011-10-03T11:21:11Z</time></trkpt><trkpt lat="50.47421" lon="6.86556"><ele>298</ele><time>2011-10-03T11:21:16Z</time></trkpt><trkpt lat="50.47431" lon="6.86565"><ele>297</ele><time>2011-10-03T11:21:22Z</time></trkpt><trkpt lat="50.47438" lon="6.86566"><ele>296</ele><time>2011-10-03T11:21:25Z</time></trkpt><trkpt lat="50.47455" lon="6.86568"><ele>295</ele><time>2011-10-03T11:21:32Z</time></trkpt><trkpt lat="50.47460" lon="6.86567"><ele>294</ele><time>2011-10-03T11:21:34Z</time></trkpt><trkpt lat="50.47469" lon="6.86565"><ele>294</ele><time>2011-10-03T11:21:37Z</time></trkpt><trkpt lat="50.47477" lon="6.86564"><ele>294</ele><time>2011-10-03T11:21:40Z</time></trkpt><trkpt lat="50.47484" lon="6.86562"><ele>294</ele><time>2011-10-03T11:21:45Z</time></trkpt><trkpt lat="50.47495" lon="6.86553"><ele>293</ele><time>2011-10-03T11:21:51Z</time></trkpt><trkpt lat="50.47511" lon="6.86542"><ele>293</ele><time>2011-10-03T11:21:58Z</time></trkpt><trkpt lat="50.47516" lon="6.86543"><ele>294</ele><time>2011-10-03T11:22:00Z</time></trkpt><trkpt lat="50.47524" lon="6.86547"><ele>294</ele><time>2011-10-03T11:22:03Z</time></trkpt><trkpt lat="50.47552" lon="6.86560"><ele>300</ele><time>2011-10-03T11:22:24Z</time></trkpt><trkpt lat="50.47555" lon="6.86569"><ele>301</ele><time>2011-10-03T11:22:47Z</time></trkpt><trkpt lat="50.47555" lon="6.86569"><ele>301</ele><time>2011-10-03T11:22:47Z</time></trkpt><trkpt lat="50.47567" lon="6.86572"><ele>321</ele><time>2011-10-03T11:31:24Z</time></trkpt><trkpt lat="50.47577" lon="6.86583"><ele>324</ele><time>2011-10-03T11:31:36Z</time></trkpt><trkpt lat="50.47596" lon="6.86601"><ele>329</ele><time>2011-10-03T11:31:46Z</time></trkpt><trkpt lat="50.47614" lon="6.86610"><ele>328</ele><time>2011-10-03T11:31:55Z</time></trkpt><trkpt lat="50.47627" lon="6.86620"><ele>327</ele><time>2011-10-03T11:32:02Z</time></trkpt><trkpt lat="50.47646" lon="6.86642"><ele>327</ele><time>2011-10-03T11:32:10Z</time></trkpt><trkpt lat="50.47657" lon="6.86660"><ele>326</ele><time>2011-10-03T11:32:18Z</time></trkpt><trkpt lat="50.47680" lon="6.86671"><ele>324</ele><time>2011-10-03T11:32:31Z</time></trkpt><trkpt lat="50.47696" lon="6.86672"><ele>323</ele><time>2011-10-03T11:32:36Z</time></trkpt><trkpt lat="50.47714" lon="6.86693"><ele>321</ele><time>2011-10-03T11:32:46Z</time></trkpt><trkpt lat="50.47727" lon="6.86702"><ele>320</ele><time>2011-10-03T11:32:51Z</time></trkpt><trkpt lat="50.47750" lon="6.86721"><ele>317</ele><time>2011-10-03T11:33:04Z</time></trkpt><trkpt lat="50.47752" lon="6.86725"><ele>316</ele><time>2011-10-03T11:33:06Z</time></trkpt><trkpt lat="50.47760" lon="6.86740"><ele>315</ele><time>2011-10-03T11:33:11Z</time></trkpt><trkpt lat="50.47772" lon="6.86762"><ele>313</ele><time>2011-10-03T11:33:18Z</time></trkpt><trkpt lat="50.47775" lon="6.86774"><ele>313</ele><time>2011-10-03T11:33:21Z</time></trkpt><trkpt lat="50.47780" lon="6.86779"><ele>312</ele><time>2011-10-03T11:33:23Z</time></trkpt><trkpt lat="50.47784" lon="6.86784"><ele>312</ele><time>2011-10-03T11:33:25Z</time></trkpt><trkpt lat="50.47789" lon="6.86788"><ele>312</ele><time>2011-10-03T11:33:27Z</time></trkpt><trkpt lat="50.47793" lon="6.86798"><ele>312</ele><time>2011-10-03T11:33:30Z</time></trkpt><trkpt lat="50.47796" lon="6.86808"><ele>312</ele><time>2011-10-03T11:33:32Z</time></trkpt><trkpt lat="50.47803" lon="6.86826"><ele>312</ele><time>2011-10-03T11:33:36Z</time></trkpt><trkpt lat="50.47804" lon="6.86829"><ele>312</ele><time>2011-10-03T11:33:37Z</time></trkpt><trkpt lat="50.47810" lon="6.86837"><ele>313</ele><time>2011-10-03T11:33:40Z</time></trkpt><trkpt lat="50.47826" lon="6.86857"><ele>314</ele><time>2011-10-03T11:33:49Z</time></trkpt><trkpt lat="50.47831" lon="6.86861"><ele>314</ele><time>2011-10-03T11:33:51Z</time></trkpt><trkpt lat="50.47849" lon="6.86876"><ele>317</ele><time>2011-10-03T11:33:57Z</time></trkpt><trkpt lat="50.47862" lon="6.86891"><ele>320</ele><time>2011-10-03T11:34:04Z</time></trkpt><trkpt lat="50.47864" lon="6.86892"><ele>320</ele><time>2011-10-03T11:34:05Z</time></trkpt><trkpt lat="50.47879" lon="6.86915"><ele>323</ele><time>2011-10-03T11:34:16Z</time></trkpt><trkpt lat="50.47883" lon="6.86923"><ele>323</ele><time>2011-10-03T11:34:19Z</time></trkpt><trkpt lat="50.47887" lon="6.86929"><ele>324</ele><time>2011-10-03T11:34:22Z</time></trkpt><trkpt lat="50.47892" lon="6.86939"><ele>325</ele><time>2011-10-03T11:34:26Z</time></trkpt><trkpt lat="50.47895" lon="6.86946"><ele>325</ele><time>2011-10-03T11:34:28Z</time></trkpt><trkpt lat="50.47899" lon="6.86954"><ele>325</ele><time>2011-10-03T11:34:31Z</time></trkpt><trkpt lat="50.47903" lon="6.86959"><ele>326</ele><time>2011-10-03T11:34:34Z</time></trkpt><trkpt lat="50.47909" lon="6.86964"><ele>326</ele><time>2011-10-03T11:34:38Z</time></trkpt><trkpt lat="50.47916" lon="6.86976"><ele>327</ele><time>2011-10-03T11:34:44Z</time></trkpt><trkpt lat="50.47925" lon="6.86984"><ele>329</ele><time>2011-10-03T11:34:49Z</time></trkpt><trkpt lat="50.47950" lon="6.87004"><ele>332</ele><time>2011-10-03T11:35:00Z</time></trkpt><trkpt lat="50.47966" lon="6.87013"><ele>333</ele><time>2011-10-03T11:35:05Z</time></trkpt><trkpt lat="50.47983" lon="6.87020"><ele>335</ele><time>2011-10-03T11:35:10Z</time></trkpt><trkpt lat="50.48005" lon="6.87029"><ele>336</ele><time>2011-10-03T11:35:17Z</time></trkpt><trkpt lat="50.48021" lon="6.87031"><ele>336</ele><time>2011-10-03T11:35:22Z</time></trkpt><trkpt lat="50.48034" lon="6.87032"><ele>338</ele><time>2011-10-03T11:35:38Z</time></trkpt><trkpt lat="50.48049" lon="6.87027"><ele>337</ele><time>2011-10-03T11:35:48Z</time></trkpt><trkpt lat="50.48063" lon="6.87026"><ele>336</ele><time>2011-10-03T11:36:03Z</time></trkpt><trkpt lat="50.48065" lon="6.87026"><ele>336</ele><time>2011-10-03T11:36:04Z</time></trkpt><trkpt lat="50.48072" lon="6.87028"><ele>336</ele><time>2011-10-03T11:36:08Z</time></trkpt><trkpt lat="50.48090" lon="6.87037"><ele>335</ele><time>2011-10-03T11:36:18Z</time></trkpt><trkpt lat="50.48092" lon="6.87039"><ele>335</ele><time>2011-10-03T11:36:19Z</time></trkpt><trkpt lat="50.48097" lon="6.87045"><ele>334</ele><time>2011-10-03T11:36:22Z</time></trkpt><trkpt lat="50.48140" lon="6.87093"><ele>333</ele><time>2011-10-03T11:36:47Z</time></trkpt><trkpt lat="50.48145" lon="6.87101"><ele>333</ele><time>2011-10-03T11:36:51Z</time></trkpt><trkpt lat="50.48150" lon="6.87107"><ele>333</ele><time>2011-10-03T11:36:54Z</time></trkpt><trkpt lat="50.48154" lon="6.87114"><ele>333</ele><time>2011-10-03T11:36:57Z</time></trkpt><trkpt lat="50.48184" lon="6.87157"><ele>331</ele><time>2011-10-03T11:37:18Z</time></trkpt><trkpt lat="50.48189" lon="6.87161"><ele>331</ele><time>2011-10-03T11:37:20Z</time></trkpt><trkpt lat="50.48200" lon="6.87171"><ele>332</ele><time>2011-10-03T11:37:25Z</time></trkpt><trkpt lat="50.48205" lon="6.87173"><ele>332</ele><time>2011-10-03T11:37:27Z</time></trkpt><trkpt lat="50.48220" lon="6.87176"><ele>334</ele><time>2011-10-03T11:37:38Z</time></trkpt><trkpt lat="50.48226" lon="6.87177"><ele>335</ele><time>2011-10-03T11:37:40Z</time></trkpt><trkpt lat="50.48237" lon="6.87176"><ele>337</ele><time>2011-10-03T11:37:43Z</time></trkpt><trkpt lat="50.48279" lon="6.87177"><ele>342</ele><time>2011-10-03T11:38:01Z</time></trkpt><trkpt lat="50.48285" lon="6.87179"><ele>343</ele><time>2011-10-03T11:38:04Z</time></trkpt><trkpt lat="50.48295" lon="6.87183"><ele>345</ele><time>2011-10-03T11:38:14Z</time></trkpt><trkpt lat="50.48299" lon="6.87187"><ele>347</ele><time>2011-10-03T11:38:20Z</time></trkpt><trkpt lat="50.48309" lon="6.87202"><ele>351</ele><time>2011-10-03T11:38:43Z</time></trkpt><trkpt lat="50.48312" lon="6.87216"><ele>352</ele><time>2011-10-03T11:38:53Z</time></trkpt><trkpt lat="50.48315" lon="6.87223"><ele>352</ele><time>2011-10-03T11:38:58Z</time></trkpt><trkpt lat="50.48320" lon="6.87228"><ele>353</ele><time>2011-10-03T11:39:01Z</time></trkpt><trkpt lat="50.48323" lon="6.87233"><ele>354</ele><time>2011-10-03T11:39:06Z</time></trkpt><trkpt lat="50.48325" lon="6.87240"><ele>354</ele><time>2011-10-03T11:39:10Z</time></trkpt><trkpt lat="50.48330" lon="6.87244"><ele>355</ele><time>2011-10-03T11:39:16Z</time></trkpt><trkpt lat="50.48335" lon="6.87248"><ele>355</ele><time>2011-10-03T11:39:20Z</time></trkpt><trkpt lat="50.48339" lon="6.87253"><ele>355</ele><time>2011-10-03T11:39:27Z</time></trkpt><trkpt lat="50.48346" lon="6.87265"><ele>356</ele><time>2011-10-03T11:39:35Z</time></trkpt><trkpt lat="50.48350" lon="6.87271"><ele>357</ele><time>2011-10-03T11:39:41Z</time></trkpt><trkpt lat="50.48354" lon="6.87275"><ele>357</ele><time>2011-10-03T11:39:46Z</time></trkpt><trkpt lat="50.48358" lon="6.87280"><ele>358</ele><time>2011-10-03T11:39:51Z</time></trkpt><trkpt lat="50.48369" lon="6.87302"><ele>358</ele><time>2011-10-03T11:40:11Z</time></trkpt><trkpt lat="50.48371" lon="6.87316"><ele>358</ele><time>2011-10-03T11:40:20Z</time></trkpt><trkpt lat="50.48374" lon="6.87322"><ele>359</ele><time>2011-10-03T11:40:26Z</time></trkpt><trkpt lat="50.48379" lon="6.87334"><ele>361</ele><time>2011-10-03T11:40:40Z</time></trkpt><trkpt lat="50.48379" lon="6.87342"><ele>362</ele><time>2011-10-03T11:40:57Z</time></trkpt><trkpt lat="50.48384" lon="6.87347"><ele>362</ele><time>2011-10-03T11:40:58Z</time></trkpt><trkpt lat="50.48389" lon="6.87351"><ele>362</ele><time>2011-10-03T11:41:03Z</time></trkpt><trkpt lat="50.48399" lon="6.87365"><ele>363</ele><time>2011-10-03T11:41:24Z</time></trkpt><trkpt lat="50.48406" lon="6.87383"><ele>364</ele><time>2011-10-03T11:41:44Z</time></trkpt><trkpt lat="50.48407" lon="6.87398"><ele>365</ele><time>2011-10-03T11:41:58Z</time></trkpt><trkpt lat="50.48408" lon="6.87405"><ele>365</ele><time>2011-10-03T11:42:04Z</time></trkpt><trkpt lat="50.48413" lon="6.87418"><ele>367</ele><time>2011-10-03T11:42:14Z</time></trkpt><trkpt lat="50.48428" lon="6.87449"><ele>372</ele><time>2011-10-03T11:42:35Z</time></trkpt><trkpt lat="50.48431" lon="6.87453"><ele>375</ele><time>2011-10-03T11:42:44Z</time></trkpt><trkpt lat="50.48441" lon="6.87459"><ele>376</ele><time>2011-10-03T11:43:06Z</time></trkpt><trkpt lat="50.48460" lon="6.87470"><ele>380</ele><time>2011-10-03T11:43:33Z</time></trkpt><trkpt lat="50.48470" lon="6.87473"><ele>380</ele><time>2011-10-03T11:43:42Z</time></trkpt><trkpt lat="50.48479" lon="6.87477"><ele>382</ele><time>2011-10-03T11:43:52Z</time></trkpt><trkpt lat="50.48488" lon="6.87481"><ele>383</ele><time>2011-10-03T11:44:03Z</time></trkpt><trkpt lat="50.48493" lon="6.87481"><ele>383</ele><time>2011-10-03T11:44:06Z</time></trkpt><trkpt lat="50.48498" lon="6.87482"><ele>385</ele><time>2011-10-03T11:44:10Z</time></trkpt><trkpt lat="50.48503" lon="6.87484"><ele>386</ele><time>2011-10-03T11:44:15Z</time></trkpt><trkpt lat="50.48507" lon="6.87487"><ele>388</ele><time>2011-10-03T11:44:25Z</time></trkpt><trkpt lat="50.48510" lon="6.87492"><ele>391</ele><time>2011-10-03T11:44:40Z</time></trkpt><trkpt lat="50.48515" lon="6.87496"><ele>393</ele><time>2011-10-03T11:45:01Z</time></trkpt><trkpt lat="50.48519" lon="6.87498"><ele>394</ele><time>2011-10-03T11:45:18Z</time></trkpt><trkpt lat="50.48524" lon="6.87501"><ele>395</ele><time>2011-10-03T11:45:23Z</time></trkpt><trkpt lat="50.48533" lon="6.87503"><ele>396</ele><time>2011-10-03T11:45:45Z</time></trkpt><trkpt lat="50.48542" lon="6.87507"><ele>397</ele><time>2011-10-03T11:45:56Z</time></trkpt><trkpt lat="50.48547" lon="6.87510"><ele>398</ele><time>2011-10-03T11:46:00Z</time></trkpt><trkpt lat="50.48560" lon="6.87522"><ele>400</ele><time>2011-10-03T11:46:13Z</time></trkpt><trkpt lat="50.48565" lon="6.87535"><ele>402</ele><time>2011-10-03T11:46:21Z</time></trkpt><trkpt lat="50.48568" lon="6.87541"><ele>402</ele><time>2011-10-03T11:46:24Z</time></trkpt><trkpt lat="50.48570" lon="6.87547"><ele>405</ele><time>2011-10-03T11:46:32Z</time></trkpt><trkpt lat="50.48574" lon="6.87551"><ele>406</ele><time>2011-10-03T11:46:37Z</time></trkpt><trkpt lat="50.48582" lon="6.87562"><ele>409</ele><time>2011-10-03T11:46:51Z</time></trkpt><trkpt lat="50.48584" lon="6.87570"><ele>409</ele><time>2011-10-03T11:46:52Z</time></trkpt><trkpt lat="50.48586" lon="6.87577"><ele>410</ele><time>2011-10-03T11:46:57Z</time></trkpt><trkpt lat="50.48587" lon="6.87584"><ele>411</ele><time>2011-10-03T11:47:02Z</time></trkpt><trkpt lat="50.48586" lon="6.87592"><ele>411</ele><time>2011-10-03T11:47:08Z</time></trkpt><trkpt lat="50.48587" lon="6.87598"><ele>412</ele><time>2011-10-03T11:47:12Z</time></trkpt><trkpt lat="50.48588" lon="6.87601"><ele>412</ele><time>2011-10-03T11:47:14Z</time></trkpt><trkpt lat="50.48589" lon="6.87614"><ele>413</ele><time>2011-10-03T11:47:30Z</time></trkpt><trkpt lat="50.48589" lon="6.87623"><ele>413</ele><time>2011-10-03T11:47:48Z</time></trkpt><trkpt lat="50.48590" lon="6.87627"><ele>413</ele><time>2011-10-03T11:47:51Z</time></trkpt><trkpt lat="50.48592" lon="6.87631"><ele>413</ele><time>2011-10-03T11:47:54Z</time></trkpt><trkpt lat="50.48594" lon="6.87634"><ele>413</ele><time>2011-10-03T11:47:57Z</time></trkpt><trkpt lat="50.48597" lon="6.87636"><ele>413</ele><time>2011-10-03T11:47:59Z</time></trkpt><trkpt lat="50.48599" lon="6.87638"><ele>413</ele><time>2011-10-03T11:48:02Z</time></trkpt><trkpt lat="50.48607" lon="6.87649"><ele>413</ele><time>2011-10-03T11:48:13Z</time></trkpt><trkpt lat="50.48613" lon="6.87659"><ele>413</ele><time>2011-10-03T11:48:24Z</time></trkpt><trkpt lat="50.48615" lon="6.87665"><ele>413</ele><time>2011-10-03T11:48:28Z</time></trkpt><trkpt lat="50.48616" lon="6.87669"><ele>413</ele><time>2011-10-03T11:48:31Z</time></trkpt><trkpt lat="50.48619" lon="6.87676"><ele>413</ele><time>2011-10-03T11:48:37Z</time></trkpt><trkpt lat="50.48621" lon="6.87679"><ele>413</ele><time>2011-10-03T11:48:40Z</time></trkpt><trkpt lat="50.48623" lon="6.87684"><ele>413</ele><time>2011-10-03T11:48:44Z</time></trkpt><trkpt lat="50.48625" lon="6.87688"><ele>413</ele><time>2011-10-03T11:48:47Z</time></trkpt><trkpt lat="50.48626" lon="6.87691"><ele>412</ele><time>2011-10-03T11:48:50Z</time></trkpt><trkpt lat="50.48627" lon="6.87695"><ele>412</ele><time>2011-10-03T11:48:53Z</time></trkpt><trkpt lat="50.48629" lon="6.87698"><ele>412</ele><time>2011-10-03T11:48:56Z</time></trkpt><trkpt lat="50.48636" lon="6.87710"><ele>412</ele><time>2011-10-03T11:49:09Z</time></trkpt><trkpt lat="50.48637" lon="6.87715"><ele>412</ele><time>2011-10-03T11:49:12Z</time></trkpt><trkpt lat="50.48638" lon="6.87718"><ele>412</ele><time>2011-10-03T11:49:14Z</time></trkpt><trkpt lat="50.48639" lon="6.87722"><ele>412</ele><time>2011-10-03T11:49:17Z</time></trkpt><trkpt lat="50.48641" lon="6.87725"><ele>411</ele><time>2011-10-03T11:49:20Z</time></trkpt><trkpt lat="50.48647" lon="6.87738"><ele>411</ele><time>2011-10-03T11:49:32Z</time></trkpt><trkpt lat="50.48648" lon="6.87742"><ele>411</ele><time>2011-10-03T11:49:34Z</time></trkpt><trkpt lat="50.48649" lon="6.87746"><ele>411</ele><time>2011-10-03T11:49:36Z</time></trkpt><trkpt lat="50.48650" lon="6.87750"><ele>411</ele><time>2011-10-03T11:49:39Z</time></trkpt><trkpt lat="50.48651" lon="6.87753"><ele>411</ele><time>2011-10-03T11:49:42Z</time></trkpt><trkpt lat="50.48653" lon="6.87756"><ele>411</ele><time>2011-10-03T11:49:45Z</time></trkpt><trkpt lat="50.48665" lon="6.87784"><ele>413</ele><time>2011-10-03T11:50:09Z</time></trkpt><trkpt lat="50.48667" lon="6.87789"><ele>413</ele><time>2011-10-03T11:50:12Z</time></trkpt><trkpt lat="50.48669" lon="6.87794"><ele>413</ele><time>2011-10-03T11:50:15Z</time></trkpt><trkpt lat="50.48670" lon="6.87797"><ele>413</ele><time>2011-10-03T11:50:17Z</time></trkpt><trkpt lat="50.48674" lon="6.87802"><ele>413</ele><time>2011-10-03T11:50:22Z</time></trkpt><trkpt lat="50.48676" lon="6.87808"><ele>414</ele><time>2011-10-03T11:50:30Z</time></trkpt><trkpt lat="50.48677" lon="6.87813"><ele>414</ele><time>2011-10-03T11:50:33Z</time></trkpt><trkpt lat="50.48678" lon="6.87817"><ele>414</ele><time>2011-10-03T11:50:36Z</time></trkpt><trkpt lat="50.48679" lon="6.87820"><ele>414</ele><time>2011-10-03T11:50:38Z</time></trkpt><trkpt lat="50.48681" lon="6.87824"><ele>414</ele><time>2011-10-03T11:50:40Z</time></trkpt><trkpt lat="50.48683" lon="6.87833"><ele>415</ele><time>2011-10-03T11:50:50Z</time></trkpt><trkpt lat="50.48691" lon="6.87840"><ele>416</ele><time>2011-10-03T11:51:10Z</time></trkpt><trkpt lat="50.48696" lon="6.87842"><ele>416</ele><time>2011-10-03T11:51:12Z</time></trkpt><trkpt lat="50.48699" lon="6.87843"><ele>416</ele><time>2011-10-03T11:51:16Z</time></trkpt><trkpt lat="50.48704" lon="6.87843"><ele>416</ele><time>2011-10-03T11:51:22Z</time></trkpt><trkpt lat="50.48716" lon="6.87842"><ele>417</ele><time>2011-10-03T11:51:35Z</time></trkpt><trkpt lat="50.48721" lon="6.87841"><ele>417</ele><time>2011-10-03T11:51:40Z</time></trkpt><trkpt lat="50.48726" lon="6.87842"><ele>417</ele><time>2011-10-03T11:51:43Z</time></trkpt><trkpt lat="50.48729" lon="6.87844"><ele>417</ele><time>2011-10-03T11:51:45Z</time></trkpt><trkpt lat="50.48732" lon="6.87846"><ele>417</ele><time>2011-10-03T11:51:47Z</time></trkpt><trkpt lat="50.48734" lon="6.87849"><ele>417</ele><time>2011-10-03T11:51:49Z</time></trkpt><trkpt lat="50.48738" lon="6.87856"><ele>417</ele><time>2011-10-03T11:51:53Z</time></trkpt><trkpt lat="50.48740" lon="6.87860"><ele>417</ele><time>2011-10-03T11:51:55Z</time></trkpt><trkpt lat="50.48746" lon="6.87877"><ele>417</ele><time>2011-10-03T11:52:01Z</time></trkpt><trkpt lat="50.48747" lon="6.87882"><ele>417</ele><time>2011-10-03T11:52:03Z</time></trkpt><trkpt lat="50.48747" lon="6.87889"><ele>418</ele><time>2011-10-03T11:52:05Z</time></trkpt><trkpt lat="50.48747" lon="6.87895"><ele>418</ele><time>2011-10-03T11:52:07Z</time></trkpt><trkpt lat="50.48748" lon="6.87910"><ele>418</ele><time>2011-10-03T11:52:12Z</time></trkpt><trkpt lat="50.48748" lon="6.87917"><ele>419</ele><time>2011-10-03T11:52:14Z</time></trkpt><trkpt lat="50.48748" lon="6.87923"><ele>419</ele><time>2011-10-03T11:52:16Z</time></trkpt><trkpt lat="50.48747" lon="6.87931"><ele>419</ele><time>2011-10-03T11:52:19Z</time></trkpt><trkpt lat="50.48746" lon="6.87936"><ele>420</ele><time>2011-10-03T11:52:21Z</time></trkpt><trkpt lat="50.48743" lon="6.87955"><ele>421</ele><time>2011-10-03T11:52:28Z</time></trkpt><trkpt lat="50.48743" lon="6.87962"><ele>421</ele><time>2011-10-03T11:52:30Z</time></trkpt><trkpt lat="50.48742" lon="6.87968"><ele>421</ele><time>2011-10-03T11:52:32Z</time></trkpt><trkpt lat="50.48741" lon="6.87981"><ele>422</ele><time>2011-10-03T11:52:37Z</time></trkpt><trkpt lat="50.48741" lon="6.87985"><ele>422</ele><time>2011-10-03T11:52:39Z</time></trkpt><trkpt lat="50.48743" lon="6.87992"><ele>423</ele><time>2011-10-03T11:52:43Z</time></trkpt><trkpt lat="50.48749" lon="6.87996"><ele>423</ele><time>2011-10-03T11:52:48Z</time></trkpt><trkpt lat="50.48753" lon="6.87995"><ele>423</ele><time>2011-10-03T11:52:51Z</time></trkpt><trkpt lat="50.48760" lon="6.87995"><ele>424</ele><time>2011-10-03T11:52:57Z</time></trkpt><trkpt lat="50.48765" lon="6.87991"><ele>424</ele><time>2011-10-03T11:53:01Z</time></trkpt><trkpt lat="50.48768" lon="6.87984"><ele>424</ele><time>2011-10-03T11:53:04Z</time></trkpt><trkpt lat="50.48771" lon="6.87975"><ele>425</ele><time>2011-10-03T11:53:07Z</time></trkpt><trkpt lat="50.48775" lon="6.87969"><ele>425</ele><time>2011-10-03T11:53:09Z</time></trkpt><trkpt lat="50.48778" lon="6.87962"><ele>425</ele><time>2011-10-03T11:53:11Z</time></trkpt><trkpt lat="50.48783" lon="6.87953"><ele>425</ele><time>2011-10-03T11:53:14Z</time></trkpt><trkpt lat="50.48784" lon="6.87944"><ele>426</ele><time>2011-10-03T11:53:18Z</time></trkpt><trkpt lat="50.48787" lon="6.87933"><ele>426</ele><time>2011-10-03T11:53:25Z</time></trkpt><trkpt lat="50.48791" lon="6.87927"><ele>426</ele><time>2011-10-03T11:53:27Z</time></trkpt><trkpt lat="50.48788" lon="6.87918"><ele>427</ele><time>2011-10-03T11:53:32Z</time></trkpt><trkpt lat="50.48784" lon="6.87896"><ele>428</ele><time>2011-10-03T11:53:41Z</time></trkpt><trkpt lat="50.48786" lon="6.87883"><ele>429</ele><time>2011-10-03T11:53:46Z</time></trkpt><trkpt lat="50.48793" lon="6.87870"><ele>431</ele><time>2011-10-03T11:53:51Z</time></trkpt><trkpt lat="50.48799" lon="6.87865"><ele>432</ele><time>2011-10-03T11:53:53Z</time></trkpt><trkpt lat="50.48806" lon="6.87855"><ele>433</ele><time>2011-10-03T11:53:57Z</time></trkpt><trkpt lat="50.48815" lon="6.87845"><ele>435</ele><time>2011-10-03T11:54:01Z</time></trkpt><trkpt lat="50.48818" lon="6.87842"><ele>436</ele><time>2011-10-03T11:54:02Z</time></trkpt><trkpt lat="50.48825" lon="6.87837"><ele>437</ele><time>2011-10-03T11:54:04Z</time></trkpt><trkpt lat="50.48847" lon="6.87826"><ele>441</ele><time>2011-10-03T11:54:14Z</time></trkpt><trkpt lat="50.48850" lon="6.87827"><ele>442</ele><time>2011-10-03T11:54:16Z</time></trkpt><trkpt lat="50.48858" lon="6.87831"><ele>443</ele><time>2011-10-03T11:54:21Z</time></trkpt><trkpt lat="50.48859" lon="6.87832"><ele>443</ele><time>2011-10-03T11:54:22Z</time></trkpt><trkpt lat="50.48865" lon="6.87834"><ele>444</ele><time>2011-10-03T11:54:25Z</time></trkpt><trkpt lat="50.48872" lon="6.87836"><ele>444</ele><time>2011-10-03T11:54:27Z</time></trkpt><trkpt lat="50.48877" lon="6.87838"><ele>444</ele><time>2011-10-03T11:54:29Z</time></trkpt><trkpt lat="50.48881" lon="6.87842"><ele>444</ele><time>2011-10-03T11:54:31Z</time></trkpt><trkpt lat="50.48883" lon="6.87844"><ele>444</ele><time>2011-10-03T11:54:32Z</time></trkpt><trkpt lat="50.48891" lon="6.87855"><ele>445</ele><time>2011-10-03T11:54:37Z</time></trkpt><trkpt lat="50.48893" lon="6.87859"><ele>445</ele><time>2011-10-03T11:54:39Z</time></trkpt><trkpt lat="50.48900" lon="6.87873"><ele>445</ele><time>2011-10-03T11:54:45Z</time></trkpt><trkpt lat="50.48902" lon="6.87877"><ele>446</ele><time>2011-10-03T11:54:47Z</time></trkpt><trkpt lat="50.48904" lon="6.87881"><ele>446</ele><time>2011-10-03T11:54:49Z</time></trkpt><trkpt lat="50.48906" lon="6.87885"><ele>446</ele><time>2011-10-03T11:54:51Z</time></trkpt><trkpt lat="50.48908" lon="6.87888"><ele>446</ele><time>2011-10-03T11:54:53Z</time></trkpt><trkpt lat="50.48911" lon="6.87891"><ele>446</ele><time>2011-10-03T11:54:55Z</time></trkpt><trkpt lat="50.48913" lon="6.87893"><ele>446</ele><time>2011-10-03T11:54:57Z</time></trkpt><trkpt lat="50.48916" lon="6.87897"><ele>446</ele><time>2011-10-03T11:54:59Z</time></trkpt><trkpt lat="50.48920" lon="6.87902"><ele>446</ele><time>2011-10-03T11:55:02Z</time></trkpt><trkpt lat="50.48936" lon="6.87922"><ele>447</ele><time>2011-10-03T11:55:14Z</time></trkpt><trkpt lat="50.48944" lon="6.87933"><ele>447</ele><time>2011-10-03T11:55:20Z</time></trkpt><trkpt lat="50.48946" lon="6.87938"><ele>447</ele><time>2011-10-03T11:55:22Z</time></trkpt><trkpt lat="50.48950" lon="6.87946"><ele>447</ele><time>2011-10-03T11:55:26Z</time></trkpt><trkpt lat="50.48951" lon="6.87952"><ele>447</ele><time>2011-10-03T11:55:28Z</time></trkpt><trkpt lat="50.48951" lon="6.87957"><ele>447</ele><time>2011-10-03T11:55:30Z</time></trkpt><trkpt lat="50.48953" lon="6.87992"><ele>447</ele><time>2011-10-03T11:55:42Z</time></trkpt><trkpt lat="50.48953" lon="6.87997"><ele>447</ele><time>2011-10-03T11:55:44Z</time></trkpt><trkpt lat="50.48953" lon="6.88003"><ele>447</ele><time>2011-10-03T11:55:46Z</time></trkpt><trkpt lat="50.48953" lon="6.88010"><ele>447</ele><time>2011-10-03T11:55:48Z</time></trkpt><trkpt lat="50.48953" lon="6.88049"><ele>448</ele><time>2011-10-03T11:56:00Z</time></trkpt><trkpt lat="50.48953" lon="6.88059"><ele>448</ele><time>2011-10-03T11:56:04Z</time></trkpt><trkpt lat="50.48952" lon="6.88063"><ele>448</ele><time>2011-10-03T11:56:06Z</time></trkpt><trkpt lat="50.48952" lon="6.88069"><ele>448</ele><time>2011-10-03T11:56:08Z</time></trkpt><trkpt lat="50.48952" lon="6.88085"><ele>449</ele><time>2011-10-03T11:56:15Z</time></trkpt><trkpt lat="50.48946" lon="6.88113"><ele>454</ele><time>2011-10-03T11:58:01Z</time></trkpt><trkpt lat="50.48939" lon="6.88121"><ele>454</ele><time>2011-10-03T11:58:22Z</time></trkpt><trkpt lat="50.48939" lon="6.88121"><ele>454</ele><time>2011-10-03T11:58:22Z</time></trkpt></trkseg></trk></gpx>